PWSweather.com
Personal Weather Stations
Station Observations
DL5ARK
SonnebergDE

SonnebergDE

Lat: 50.34904861, Lon: 11.18112087

Elevation: 1214

Station Type: Selfmade

http://www.sumbarg.de

High Low Average
Temperature 32.8°F0.4°F 24.9°F-3.9°F 29.0°F-1.7°F
Dew Point 32.2°F0.1°F 27.6°F-2.4°F 29.2°F-1.6°F
Winds 15.0 mph -24.1 mph - Calm Calm 5.9 mph 9.5 mph
Wind Gusts 15.1 mph24.3 mph -- 6.0 mph9.7 mph
Humidity 84% 72% 78%
Pressure 30.14 in1020.70 in 30.02 in1016.60 in -
Precipitation 0.00 in0.00 in - -
Hour Temp Dew Point Humidity Winds Wind Gusts Pressure Precip Precip Rate Daily Precip Total
12:00 AM 29.6°F-1.3°C 32.1°F0.1°C 82% 5.2 mph NNW8.4 kmh NNW 5.2 mph8.4 kmh 30.14 in1020.7 mb 0.00 in0.0 mm 0.00 in0.0 mm 0.00 in0.0 mm
12:03 AM 29.4°F-1.4°C 32.2°F0.1°C 82% 4.2 mph NNW6.8 kmh NNW 4.3 mph6.9 kmh 30.14 in1020.7 mb 0.00 in0.0 mm 0.00 in0.0 mm 0.00 in0.0 mm
12:06 AM 29.8°F-1.2°C 32.1°F0.1°C 82% 6.1 mph ESE9.8 kmh ESE 6.1 mph9.8 kmh 30.14 in1020.7 mb 0.00 in0.0 mm 0.00 in0.0 mm 0.00 in0.0 mm
12:09 AM 30.0°F-1.1°C 32.2°F0.1°C 82% 6.5 mph NNW10.5 kmh NNW 6.5 mph10.5 kmh 30.14 in1020.7 mb 0.00 in0.0 mm 0.00 in0.0 mm 0.00 in0.0 mm
12:12 AM 29.6°F-1.3°C 32.2°F0.1°C 82% 4.5 mph ESE7.2 kmh ESE 4.5 mph7.2 kmh 30.14 in1020.7 mb 0.00 in0.0 mm 0.00 in0.0 mm 0.00 in0.0 mm
12:15 AM 29.5°F-1.4°C 32.1°F0.1°C 82% 4.4 mph ESE7.1 kmh ESE 4.5 mph7.2 kmh 30.14 in1020.7 mb 0.00 in0.0 mm 0.00 in0.0 mm 0.00 in0.0 mm
12:18 AM 29.4°F-1.4°C 31.9°F-0.1°C 81% 6.4 mph ESE10.3 kmh ESE 6.4 mph10.3 kmh 30.14 in1020.7 mb 0.00 in0.0 mm 0.00 in0.0 mm 0.00 in0.0 mm
12:21 AM 29.3°F-1.5°C 31.9°F-0.1°C 82% 6.0 mph SE9.7 kmh SE 6.1 mph9.8 kmh 30.14 in1020.7 mb 0.00 in0.0 mm 0.00 in0.0 mm 0.00 in0.0 mm
12:24 AM 29.6°F-1.3°C 31.9°F-0.1°C 82% 6.4 mph ESE10.3 kmh ESE 6.5 mph10.5 kmh 30.14 in1020.7 mb 0.00 in0.0 mm 0.00 in0.0 mm 0.00 in0.0 mm
12:27 AM 29.5°F-1.4°C 31.6°F-0.2°C 82% 4.5 mph ESE7.2 kmh ESE 4.5 mph7.2 kmh 30.14 in1020.7 mb 0.00 in0.0 mm 0.00 in0.0 mm 0.00 in0.0 mm
12:30 AM 29.4°F-1.4°C 31.8°F-0.1°C 81% 0.4 mph NNW0.6 kmh NNW 0.4 mph0.6 kmh 30.14 in1020.7 mb 0.00 in0.0 mm 0.00 in0.0 mm 0.00 in0.0 mm
12:33 AM 29.4°F-1.4°C 31.4°F-0.3°C 80% 9.3 mph ESE15.0 kmh ESE 9.3 mph15.0 kmh 30.14 in1020.7 mb 0.00 in0.0 mm 0.00 in0.0 mm 0.00 in0.0 mm
12:36 AM 29.5°F-1.4°C 31.6°F-0.2°C 82% 6.9 mph ESE11.1 kmh ESE 6.9 mph11.1 kmh 30.14 in1020.7 mb 0.00 in0.0 mm 0.00 in0.0 mm 0.00 in0.0 mm
12:39 AM 29.5°F-1.4°C 31.9°F-0.1°C 82% 6.1 mph ESE9.8 kmh ESE 6.1 mph9.8 kmh 30.14 in1020.7 mb 0.00 in0.0 mm 0.00 in0.0 mm 0.00 in0.0 mm
12:42 AM 29.8°F-1.2°C 32.0°F0.0°C 82% 3.2 mph NNW5.1 kmh NNW 3.3 mph5.3 kmh 30.14 in1020.7 mb 0.00 in0.0 mm 0.00 in0.0 mm 0.00 in0.0 mm
12:45 AM 28.9°F-1.7°C 32.0°F0.0°C 82% 0.4 mph ESE0.6 kmh ESE 0.4 mph0.6 kmh 30.14 in1020.7 mb 0.00 in0.0 mm 0.00 in0.0 mm 0.00 in0.0 mm
12:48 AM 28.5°F-1.9°C 31.7°F-0.2°C 81% Calm Calm -- 30.14 in1020.7 mb 0.00 in0.0 mm 0.00 in0.0 mm 0.00 in0.0 mm
12:51 AM 29.4°F-1.4°C 31.5°F-0.3°C 81% 4.8 mph ESE7.7 kmh ESE 4.9 mph7.9 kmh 30.14 in1020.7 mb 0.00 in0.0 mm 0.00 in0.0 mm 0.00 in0.0 mm
12:54 AM 29.2°F-1.6°C 31.8°F-0.1°C 81% 4.4 mph ESE7.1 kmh ESE 4.4 mph7.1 kmh 30.14 in1020.7 mb 0.00 in0.0 mm 0.00 in0.0 mm 0.00 in0.0 mm
12:57 AM 29.1°F-1.6°C 31.6°F-0.2°C 81% 3.2 mph ESE5.1 kmh ESE 3.3 mph5.3 kmh 30.14 in1020.7 mb 0.00 in0.0 mm 0.00 in0.0 mm 0.00 in0.0 mm
01:00 AM 29.2°F-1.6°C 31.6°F-0.2°C 81% 1.2 mph ESE1.9 kmh ESE 1.2 mph1.9 kmh 30.14 in1020.7 mb 0.00 in0.0 mm 0.00 in0.0 mm 0.00 in0.0 mm
01:03 AM 28.6°F-1.9°C 31.5°F-0.3°C 81% Calm Calm -- 30.14 in1020.7 mb 0.00 in0.0 mm 0.00 in0.0 mm 0.00 in0.0 mm
01:06 AM 28.6°F-1.9°C 31.3°F-0.4°C 80% 6.0 mph ESE9.7 kmh ESE 6.0 mph9.7 kmh 30.14 in1020.7 mb 0.00 in0.0 mm 0.00 in0.0 mm 0.00 in0.0 mm
01:09 AM 28.2°F-2.1°C 31.4°F-0.3°C 80% 2.8 mph ESE4.5 kmh ESE 2.8 mph4.5 kmh 30.14 in1020.7 mb 0.00 in0.0 mm 0.00 in0.0 mm 0.00 in0.0 mm
01:12 AM 28.1°F-2.2°C 31.1°F-0.5°C 80% 3.6 mph ESE5.8 kmh ESE 3.7 mph6.0 kmh 30.13 in1020.3 mb 0.00 in0.0 mm 0.00 in0.0 mm 0.00 in0.0 mm
01:15 AM 28.0°F-2.2°C 31.1°F-0.5°C 80% 2.0 mph ESE3.2 kmh ESE 2.0 mph3.2 kmh 30.13 in1020.3 mb 0.00 in0.0 mm 0.00 in0.0 mm 0.00 in0.0 mm
01:18 AM 27.7°F-2.4°C 31.2°F-0.4°C 80% Calm Calm -- 30.13 in1020.3 mb 0.00 in0.0 mm 0.00 in0.0 mm 0.00 in0.0 mm
01:21 AM 27.6°F-2.4°C 31.2°F-0.4°C 80% 3.6 mph NNW5.8 kmh NNW 3.7 mph6.0 kmh 30.13 in1020.3 mb 0.00 in0.0 mm 0.00 in0.0 mm 0.00 in0.0 mm
01:24 AM 27.6°F-2.4°C 30.7°F-0.7°C 80% 2.4 mph ESE3.9 kmh ESE 2.4 mph3.9 kmh 30.13 in1020.3 mb 0.00 in0.0 mm 0.00 in0.0 mm 0.00 in0.0 mm
01:27 AM 27.5°F-2.5°C 30.9°F-0.6°C 80% Calm Calm -- 30.13 in1020.3 mb 0.00 in0.0 mm 0.00 in0.0 mm 0.00 in0.0 mm
01:30 AM 28.0°F-2.2°C 30.9°F-0.6°C 80% 1.2 mph E1.9 kmh E 1.2 mph1.9 kmh 30.13 in1020.3 mb 0.00 in0.0 mm 0.00 in0.0 mm 0.00 in0.0 mm
01:33 AM 27.6°F-2.4°C 31.0°F-0.6°C 80% 3.2 mph SE5.1 kmh SE 3.3 mph5.3 kmh 30.13 in1020.3 mb 0.00 in0.0 mm 0.00 in0.0 mm 0.00 in0.0 mm
01:36 AM 27.6°F-2.4°C 30.8°F-0.7°C 80% Calm Calm -- 30.13 in1020.3 mb 0.00 in0.0 mm 0.00 in0.0 mm 0.00 in0.0 mm
01:39 AM 27.8°F-2.3°C 30.5°F-0.8°C 80% 0.4 mph ESE0.6 kmh ESE 0.4 mph0.6 kmh 30.13 in1020.3 mb 0.00 in0.0 mm 0.00 in0.0 mm 0.00 in0.0 mm
01:42 AM 28.3°F-2.1°C 30.6°F-0.8°C 80% Calm Calm -- 30.13 in1020.3 mb 0.00 in0.0 mm 0.00 in0.0 mm 0.00 in0.0 mm
01:45 AM 28.3°F-2.1°C 30.9°F-0.6°C 80% 3.6 mph ESE5.8 kmh ESE 3.6 mph5.8 kmh 30.13 in1020.3 mb 0.00 in0.0 mm 0.00 in0.0 mm 0.00 in0.0 mm
01:48 AM 28.4°F-2.0°C 30.5°F-0.8°C 80% Calm Calm -- 30.13 in1020.3 mb 0.00 in0.0 mm 0.00 in0.0 mm 0.00 in0.0 mm
01:51 AM 28.7°F-1.8°C 30.8°F-0.7°C 80% 8.8 mph NNW14.2 kmh NNW 8.8 mph14.2 kmh 30.13 in1020.3 mb 0.00 in0.0 mm 0.00 in0.0 mm 0.00 in0.0 mm
01:54 AM 28.4°F-2.0°C 30.6°F-0.8°C 80% 4.8 mph ESE7.7 kmh ESE 4.8 mph7.7 kmh 30.13 in1020.3 mb 0.00 in0.0 mm 0.00 in0.0 mm 0.00 in0.0 mm
01:57 AM 28.0°F-2.2°C 30.6°F-0.8°C 80% 3.8 mph SE6.1 kmh SE 3.8 mph6.1 kmh 30.13 in1020.3 mb 0.00 in0.0 mm 0.00 in0.0 mm 0.00 in0.0 mm
02:00 AM 27.7°F-2.4°C 30.5°F-0.8°C 80% 2.8 mph SE4.5 kmh SE 2.9 mph4.7 kmh 30.13 in1020.3 mb 0.00 in0.0 mm 0.00 in0.0 mm 0.00 in0.0 mm
02:03 AM 28.0°F-2.2°C 30.7°F-0.7°C 81% 3.6 mph ESE5.8 kmh ESE 3.6 mph5.8 kmh 30.13 in1020.3 mb 0.00 in0.0 mm 0.00 in0.0 mm 0.00 in0.0 mm
02:06 AM 28.5°F-1.9°C 30.5°F-0.8°C 81% 6.9 mph ESE11.1 kmh ESE 7.0 mph11.3 kmh 30.13 in1020.3 mb 0.00 in0.0 mm 0.00 in0.0 mm 0.00 in0.0 mm
02:09 AM 28.4°F-2.0°C 30.8°F-0.7°C 82% 6.4 mph ESE10.3 kmh ESE 6.5 mph10.5 kmh 30.13 in1020.3 mb 0.00 in0.0 mm 0.00 in0.0 mm 0.00 in0.0 mm
02:12 AM 28.2°F-2.1°C 30.8°F-0.7°C 81% 4.0 mph ESE6.4 kmh ESE 4.1 mph6.6 kmh 30.13 in1020.3 mb 0.00 in0.0 mm 0.00 in0.0 mm 0.00 in0.0 mm
02:15 AM 28.4°F-2.0°C 30.9°F-0.6°C 81% 5.3 mph ESE8.5 kmh ESE 5.3 mph8.5 kmh 30.13 in1020.3 mb 0.00 in0.0 mm 0.00 in0.0 mm 0.00 in0.0 mm
02:18 AM 28.3°F-2.1°C 31.2°F-0.4°C 82% Calm Calm -- 30.13 in1020.3 mb 0.00 in0.0 mm 0.00 in0.0 mm 0.00 in0.0 mm
02:21 AM 28.1°F-2.2°C 30.9°F-0.6°C 82% 3.2 mph NNW5.1 kmh NNW 3.3 mph5.3 kmh 30.13 in1020.3 mb 0.00 in0.0 mm 0.00 in0.0 mm 0.00 in0.0 mm
02:24 AM 28.2°F-2.1°C 30.7°F-0.7°C 81% 6.1 mph SE9.8 kmh SE 6.1 mph9.8 kmh 30.13 in1020.3 mb 0.00 in0.0 mm 0.00 in0.0 mm 0.00 in0.0 mm
02:27 AM 28.5°F-1.9°C 30.7°F-0.7°C 82% 7.3 mph SE11.7 kmh SE 7.3 mph11.7 kmh 30.13 in1020.3 mb 0.00 in0.0 mm 0.00 in0.0 mm 0.00 in0.0 mm
02:30 AM 28.4°F-2.0°C 30.8°F-0.7°C 82% 6.1 mph NNW9.8 kmh NNW 6.1 mph9.8 kmh 30.13 in1020.3 mb 0.00 in0.0 mm 0.00 in0.0 mm 0.00 in0.0 mm
02:33 AM 28.3°F-2.1°C 30.8°F-0.7°C 82% 4.4 mph ESE7.1 kmh ESE 4.5 mph7.2 kmh 30.13 in1020.3 mb 0.00 in0.0 mm 0.00 in0.0 mm 0.00 in0.0 mm
02:36 AM 28.5°F-1.9°C 30.7°F-0.7°C 82% 5.3 mph SE8.5 kmh SE 5.3 mph8.5 kmh 30.13 in1020.3 mb 0.00 in0.0 mm 0.00 in0.0 mm 0.00 in0.0 mm
02:39 AM 28.1°F-2.2°C 30.9°F-0.6°C 82% 3.1 mph SE5.0 kmh SE 3.1 mph5.0 kmh 30.13 in1020.3 mb 0.00 in0.0 mm 0.00 in0.0 mm 0.00 in0.0 mm
02:42 AM 28.3°F-2.1°C 30.6°F-0.8°C 81% 4.4 mph ESE7.1 kmh ESE 4.4 mph7.1 kmh 30.13 in1020.3 mb 0.00 in0.0 mm 0.00 in0.0 mm 0.00 in0.0 mm
02:45 AM 28.6°F-1.9°C 30.9°F-0.6°C 82% 3.2 mph NNW5.1 kmh NNW 3.2 mph5.1 kmh 30.13 in1020.3 mb 0.00 in0.0 mm 0.00 in0.0 mm 0.00 in0.0 mm
02:48 AM 28.2°F-2.1°C 30.7°F-0.7°C 81% 1.2 mph SE1.9 kmh SE 1.2 mph1.9 kmh 30.13 in1020.3 mb 0.00 in0.0 mm 0.00 in0.0 mm 0.00 in0.0 mm
02:51 AM 28.3°F-2.1°C 30.6°F-0.8°C 81% 2.8 mph SE4.5 kmh SE 2.9 mph4.7 kmh 30.13 in1020.3 mb 0.00 in0.0 mm 0.00 in0.0 mm 0.00 in0.0 mm
02:54 AM 28.0°F-2.2°C 30.7°F-0.7°C 81% 4.0 mph ESE6.4 kmh ESE 4.1 mph6.6 kmh 30.13 in1020.3 mb 0.00 in0.0 mm 0.00 in0.0 mm 0.00 in0.0 mm
02:57 AM 28.1°F-2.2°C 30.6°F-0.8°C 82% 5.2 mph ESE8.4 kmh ESE 5.3 mph8.5 kmh 30.13 in1020.3 mb 0.00 in0.0 mm 0.00 in0.0 mm 0.00 in0.0 mm
03:00 AM 27.7°F-2.4°C 30.7°F-0.7°C 82% 2.0 mph ESE3.2 kmh ESE 2.0 mph3.2 kmh 30.13 in1020.3 mb 0.00 in0.0 mm 0.00 in0.0 mm 0.00 in0.0 mm
03:03 AM 27.4°F-2.6°C 30.3°F-0.9°C 80% 4.4 mph ESE7.1 kmh ESE 4.5 mph7.2 kmh 30.13 in1020.3 mb 0.00 in0.0 mm 0.00 in0.0 mm 0.00 in0.0 mm
03:06 AM 27.1°F-2.7°C 30.5°F-0.8°C 81% 3.2 mph SE5.1 kmh SE 3.3 mph5.3 kmh 30.13 in1020.3 mb 0.00 in0.0 mm 0.00 in0.0 mm 0.00 in0.0 mm
03:09 AM 27.3°F-2.6°C 30.4°F-0.9°C 81% 2.8 mph NNW4.5 kmh NNW 2.9 mph4.7 kmh 30.12 in1020.0 mb 0.00 in0.0 mm 0.00 in0.0 mm 0.00 in0.0 mm
03:12 AM 26.7°F-2.9°C 30.1°F-1.1°C 80% Calm Calm -- 30.13 in1020.3 mb 0.00 in0.0 mm 0.00 in0.0 mm 0.00 in0.0 mm
03:15 AM 27.1°F-2.7°C 30.5°F-0.8°C 81% Calm Calm -- 30.13 in1020.3 mb 0.00 in0.0 mm 0.00 in0.0 mm 0.00 in0.0 mm
03:18 AM 26.8°F-2.9°C 30.5°F-0.8°C 82% Calm Calm -- 30.12 in1020.0 mb 0.00 in0.0 mm 0.00 in0.0 mm 0.00 in0.0 mm
03:21 AM 27.7°F-2.4°C 30.8°F-0.7°C 83% Calm Calm -- 30.13 in1020.3 mb 0.00 in0.0 mm 0.00 in0.0 mm 0.00 in0.0 mm
03:24 AM 28.0°F-2.2°C 30.9°F-0.6°C 83% Calm Calm -- 30.13 in1020.3 mb 0.00 in0.0 mm 0.00 in0.0 mm 0.00 in0.0 mm
03:27 AM 28.2°F-2.1°C 31.0°F-0.6°C 83% Calm Calm -- 30.13 in1020.3 mb 0.00 in0.0 mm 0.00 in0.0 mm 0.00 in0.0 mm
03:30 AM 28.4°F-2.0°C 31.1°F-0.5°C 84% Calm Calm -- 30.13 in1020.3 mb 0.00 in0.0 mm 0.00 in0.0 mm 0.00 in0.0 mm
03:33 AM 28.5°F-1.9°C 31.2°F-0.4°C 83% Calm Calm -- 30.13 in1020.3 mb 0.00 in0.0 mm 0.00 in0.0 mm 0.00 in0.0 mm
03:36 AM 28.1°F-2.2°C 31.2°F-0.4°C 83% Calm Calm -- 30.12 in1020.0 mb 0.00 in0.0 mm 0.00 in0.0 mm 0.00 in0.0 mm
03:39 AM 28.0°F-2.2°C 31.2°F-0.4°C 83% Calm Calm -- 30.13 in1020.3 mb 0.00 in0.0 mm 0.00 in0.0 mm 0.00 in0.0 mm
03:42 AM 28.2°F-2.1°C 30.8°F-0.7°C 83% Calm Calm -- 30.13 in1020.3 mb 0.00 in0.0 mm 0.00 in0.0 mm 0.00 in0.0 mm
03:45 AM 28.1°F-2.2°C 31.3°F-0.4°C 83% Calm Calm -- 30.13 in1020.3 mb 0.00 in0.0 mm 0.00 in0.0 mm 0.00 in0.0 mm
03:48 AM 28.1°F-2.2°C 31.3°F-0.4°C 83% Calm Calm -- 30.13 in1020.3 mb 0.00 in0.0 mm 0.00 in0.0 mm 0.00 in0.0 mm
03:51 AM 28.0°F-2.2°C 30.8°F-0.7°C 83% Calm Calm -- 30.12 in1020.0 mb 0.00 in0.0 mm 0.00 in0.0 mm 0.00 in0.0 mm
03:54 AM 28.1°F-2.2°C 31.2°F-0.4°C 83% Calm Calm -- 30.11 in1019.6 mb 0.00 in0.0 mm 0.00 in0.0 mm 0.00 in0.0 mm
03:57 AM 28.2°F-2.1°C 31.0°F-0.6°C 83% Calm Calm -- 30.11 in1019.6 mb 0.00 in0.0 mm 0.00 in0.0 mm 0.00 in0.0 mm
04:00 AM 28.2°F-2.1°C 30.9°F-0.6°C 83% Calm Calm -- 30.11 in1019.6 mb 0.00 in0.0 mm 0.00 in0.0 mm 0.00 in0.0 mm
04:03 AM 28.3°F-2.1°C 31.1°F-0.5°C 83% 3.1 mph ESE5.0 kmh ESE 3.2 mph5.1 kmh 30.11 in1019.6 mb 0.00 in0.0 mm 0.00 in0.0 mm 0.00 in0.0 mm
04:06 AM 28.7°F-1.8°C 30.6°F-0.8°C 83% 5.0 mph NNW8.0 kmh NNW 5.1 mph8.2 kmh 30.11 in1019.6 mb 0.00 in0.0 mm 0.00 in0.0 mm 0.00 in0.0 mm
04:09 AM 28.6°F-1.9°C 30.7°F-0.7°C 83% 5.6 mph SE9.0 kmh SE 5.7 mph9.2 kmh 30.11 in1019.6 mb 0.00 in0.0 mm 0.00 in0.0 mm 0.00 in0.0 mm
04:12 AM 28.2°F-2.1°C 30.6°F-0.8°C 83% 2.0 mph ESE3.2 kmh ESE 2.0 mph3.2 kmh 30.11 in1019.6 mb 0.00 in0.0 mm 0.00 in0.0 mm 0.00 in0.0 mm
04:15 AM 28.3°F-2.1°C 30.6°F-0.8°C 82% 4.4 mph ESE7.1 kmh ESE 4.5 mph7.2 kmh 30.11 in1019.6 mb 0.00 in0.0 mm 0.00 in0.0 mm 0.00 in0.0 mm
04:18 AM 27.5°F-2.5°C 30.4°F-0.9°C 82% Calm Calm -- 30.11 in1019.6 mb 0.00 in0.0 mm 0.00 in0.0 mm 0.00 in0.0 mm
04:21 AM 27.5°F-2.5°C 30.2°F-1.0°C 81% 1.6 mph ESE2.6 kmh ESE 1.6 mph2.6 kmh 30.11 in1019.6 mb 0.00 in0.0 mm 0.00 in0.0 mm 0.00 in0.0 mm
04:24 AM 27.5°F-2.5°C 30.0°F-1.1°C 81% 5.3 mph ESE8.5 kmh ESE 5.3 mph8.5 kmh 30.11 in1019.6 mb 0.00 in0.0 mm 0.00 in0.0 mm 0.00 in0.0 mm
04:27 AM 26.5°F-3.1°C 29.9°F-1.2°C 81% 1.6 mph ESE2.6 kmh ESE 1.6 mph2.6 kmh 30.10 in1019.3 mb 0.00 in0.0 mm 0.00 in0.0 mm 0.00 in0.0 mm
04:30 AM 27.2°F-2.7°C 30.1°F-1.1°C 81% 1.2 mph E1.9 kmh E 1.2 mph1.9 kmh 30.10 in1019.3 mb 0.00 in0.0 mm 0.00 in0.0 mm 0.00 in0.0 mm
04:33 AM 27.2°F-2.7°C 29.4°F-1.4°C 80% 4.4 mph E7.1 kmh E 4.4 mph7.1 kmh 30.10 in1019.3 mb 0.00 in0.0 mm 0.00 in0.0 mm 0.00 in0.0 mm
04:36 AM 27.5°F-2.5°C 29.6°F-1.3°C 81% 5.7 mph ESE9.2 kmh ESE 5.7 mph9.2 kmh 30.10 in1019.3 mb 0.00 in0.0 mm 0.00 in0.0 mm 0.00 in0.0 mm
04:39 AM 27.2°F-2.7°C 29.4°F-1.4°C 80% 2.0 mph NNW3.2 kmh NNW 2.0 mph3.2 kmh 30.10 in1019.3 mb 0.00 in0.0 mm 0.00 in0.0 mm 0.00 in0.0 mm
04:42 AM 26.5°F-3.1°C 29.3°F-1.5°C 80% 3.2 mph ESE5.1 kmh ESE 3.3 mph5.3 kmh 30.10 in1019.3 mb 0.00 in0.0 mm 0.00 in0.0 mm 0.00 in0.0 mm
04:45 AM 26.0°F-3.3°C 29.5°F-1.4°C 80% 3.4 mph NNW5.5 kmh NNW 3.4 mph5.5 kmh 30.09 in1019.0 mb 0.00 in0.0 mm 0.00 in0.0 mm 0.00 in0.0 mm
04:48 AM 26.2°F-3.2°C 29.5°F-1.4°C 80% 0.4 mph NNW0.6 kmh NNW 0.4 mph0.6 kmh 30.10 in1019.3 mb 0.00 in0.0 mm 0.00 in0.0 mm 0.00 in0.0 mm
04:51 AM 26.5°F-3.1°C 29.3°F-1.5°C 80% 4.0 mph ESE6.4 kmh ESE 4.0 mph6.4 kmh 30.10 in1019.3 mb 0.00 in0.0 mm 0.00 in0.0 mm 0.00 in0.0 mm
04:54 AM 25.8°F-3.4°C 29.1°F-1.6°C 80% Calm Calm -- 30.10 in1019.3 mb 0.00 in0.0 mm 0.00 in0.0 mm 0.00 in0.0 mm
04:57 AM 25.8°F-3.4°C 28.6°F-1.9°C 79% 4.4 mph ESE7.1 kmh ESE 4.5 mph7.2 kmh 30.10 in1019.3 mb 0.00 in0.0 mm 0.00 in0.0 mm 0.00 in0.0 mm
05:00 AM 26.3°F-3.2°C 29.1°F-1.6°C 80% 6.3 mph NNW10.1 kmh NNW 6.4 mph10.3 kmh 30.09 in1019.0 mb 0.00 in0.0 mm 0.00 in0.0 mm 0.00 in0.0 mm
05:03 AM 26.5°F-3.1°C 29.0°F-1.7°C 80% 7.6 mph ESE12.2 kmh ESE 7.7 mph12.4 kmh 30.09 in1019.0 mb 0.00 in0.0 mm 0.00 in0.0 mm 0.00 in0.0 mm
05:06 AM 26.7°F-2.9°C 29.2°F-1.6°C 81% 3.2 mph ESE5.1 kmh ESE 3.3 mph5.3 kmh 30.09 in1019.0 mb 0.00 in0.0 mm 0.00 in0.0 mm 0.00 in0.0 mm
05:09 AM 26.3°F-3.2°C 28.9°F-1.7°C 80% 3.2 mph NNW5.1 kmh NNW 3.2 mph5.1 kmh 30.09 in1019.0 mb 0.00 in0.0 mm 0.00 in0.0 mm 0.00 in0.0 mm
05:12 AM 26.4°F-3.1°C 29.1°F-1.6°C 80% 7.5 mph ESE12.1 kmh ESE 7.6 mph12.2 kmh 30.10 in1019.3 mb 0.00 in0.0 mm 0.00 in0.0 mm 0.00 in0.0 mm
05:15 AM 26.0°F-3.3°C 29.3°F-1.5°C 81% 1.2 mph ESE1.9 kmh ESE 1.2 mph1.9 kmh 30.09 in1019.0 mb 0.00 in0.0 mm 0.00 in0.0 mm 0.00 in0.0 mm
05:18 AM 26.5°F-3.1°C 29.2°F-1.6°C 81% 4.4 mph ESE7.1 kmh ESE 4.4 mph7.1 kmh 30.09 in1019.0 mb 0.00 in0.0 mm 0.00 in0.0 mm 0.00 in0.0 mm
05:21 AM 26.6°F-3.0°C 29.3°F-1.5°C 81% 4.4 mph NNW7.1 kmh NNW 4.4 mph7.1 kmh 30.09 in1019.0 mb 0.00 in0.0 mm 0.00 in0.0 mm 0.00 in0.0 mm
05:24 AM 26.8°F-2.9°C 29.1°F-1.6°C 81% 6.9 mph ESE11.1 kmh ESE 6.9 mph11.1 kmh 30.09 in1019.0 mb 0.00 in0.0 mm 0.00 in0.0 mm 0.00 in0.0 mm
05:27 AM 27.1°F-2.7°C 29.1°F-1.6°C 82% 4.4 mph SE7.1 kmh SE 4.5 mph7.2 kmh 30.10 in1019.3 mb 0.00 in0.0 mm 0.00 in0.0 mm 0.00 in0.0 mm
05:30 AM 27.1°F-2.7°C 29.3°F-1.5°C 82% 6.5 mph ESE10.5 kmh ESE 6.5 mph10.5 kmh 30.10 in1019.3 mb 0.00 in0.0 mm 0.00 in0.0 mm 0.00 in0.0 mm
05:33 AM 27.3°F-2.6°C 29.3°F-1.5°C 82% 8.1 mph NNW13.0 kmh NNW 8.1 mph13.0 kmh 30.10 in1019.3 mb 0.00 in0.0 mm 0.00 in0.0 mm 0.00 in0.0 mm
05:36 AM 27.6°F-2.4°C 29.4°F-1.4°C 83% 5.3 mph ESE8.5 kmh ESE 5.3 mph8.5 kmh 30.10 in1019.3 mb 0.00 in0.0 mm 0.00 in0.0 mm 0.00 in0.0 mm
05:39 AM 27.6°F-2.4°C 29.4°F-1.4°C 82% 7.2 mph SE11.6 kmh SE 7.2 mph11.6 kmh 30.10 in1019.3 mb 0.00 in0.0 mm 0.00 in0.0 mm 0.00 in0.0 mm
05:42 AM 27.7°F-2.4°C 29.3°F-1.5°C 83% 6.9 mph SE11.1 kmh SE 7.0 mph11.3 kmh 30.10 in1019.3 mb 0.00 in0.0 mm 0.00 in0.0 mm 0.00 in0.0 mm
05:45 AM 27.8°F-2.3°C 29.4°F-1.4°C 83% 7.3 mph NNW11.7 kmh NNW 7.3 mph11.7 kmh 30.10 in1019.3 mb 0.00 in0.0 mm 0.00 in0.0 mm 0.00 in0.0 mm
05:48 AM 27.6°F-2.4°C 29.3°F-1.5°C 82% 6.0 mph ESE9.7 kmh ESE 6.0 mph9.7 kmh 30.10 in1019.3 mb 0.00 in0.0 mm 0.00 in0.0 mm 0.00 in0.0 mm
05:51 AM 27.3°F-2.6°C 29.5°F-1.4°C 82% 6.9 mph ESE11.1 kmh ESE 6.9 mph11.1 kmh 30.10 in1019.3 mb 0.00 in0.0 mm 0.00 in0.0 mm 0.00 in0.0 mm
05:54 AM 27.5°F-2.5°C 29.4°F-1.4°C 82% 6.0 mph ESE9.7 kmh ESE 6.1 mph9.8 kmh 30.10 in1019.3 mb 0.00 in0.0 mm 0.00 in0.0 mm 0.00 in0.0 mm
05:57 AM 27.4°F-2.6°C 29.3°F-1.5°C 82% 7.9 mph ESE12.7 kmh ESE 8.0 mph12.9 kmh 30.10 in1019.3 mb 0.00 in0.0 mm 0.00 in0.0 mm 0.00 in0.0 mm
06:00 AM 27.5°F-2.5°C 29.4°F-1.4°C 82% 5.6 mph NNW9.0 kmh NNW 5.7 mph9.2 kmh 30.10 in1019.3 mb 0.00 in0.0 mm 0.00 in0.0 mm 0.00 in0.0 mm
06:03 AM 27.6°F-2.4°C 29.0°F-1.7°C 82% 7.9 mph ESE12.7 kmh ESE 8.0 mph12.9 kmh 30.10 in1019.3 mb 0.00 in0.0 mm 0.00 in0.0 mm 0.00 in0.0 mm
06:06 AM 26.9°F-2.8°C 29.6°F-1.3°C 82% Calm Calm -- 30.10 in1019.3 mb 0.00 in0.0 mm 0.00 in0.0 mm 0.00 in0.0 mm
06:09 AM 26.9°F-2.8°C 29.2°F-1.6°C 81% 5.2 mph SE8.4 kmh SE 5.2 mph8.4 kmh 30.10 in1019.3 mb 0.00 in0.0 mm 0.00 in0.0 mm 0.00 in0.0 mm
06:12 AM 27.2°F-2.7°C 29.3°F-1.5°C 81% 4.9 mph NNW7.9 kmh NNW 4.9 mph7.9 kmh 30.10 in1019.3 mb 0.00 in0.0 mm 0.00 in0.0 mm 0.00 in0.0 mm
06:15 AM 26.8°F-2.9°C 28.9°F-1.7°C 81% 1.2 mph E1.9 kmh E 1.2 mph1.9 kmh 30.10 in1019.3 mb 0.00 in0.0 mm 0.00 in0.0 mm 0.00 in0.0 mm
06:18 AM 26.3°F-3.2°C 29.1°F-1.6°C 80% 1.2 mph ESE1.9 kmh ESE 1.2 mph1.9 kmh 30.09 in1019.0 mb 0.00 in0.0 mm 0.00 in0.0 mm 0.00 in0.0 mm
06:21 AM 26.0°F-3.3°C 28.6°F-1.9°C 80% 4.0 mph SE6.4 kmh SE 4.1 mph6.6 kmh 30.09 in1019.0 mb 0.00 in0.0 mm 0.00 in0.0 mm 0.00 in0.0 mm
06:24 AM 26.3°F-3.2°C 28.7°F-1.8°C 80% 3.2 mph ESE5.1 kmh ESE 3.2 mph5.1 kmh 30.09 in1019.0 mb 0.00 in0.0 mm 0.00 in0.0 mm 0.00 in0.0 mm
06:27 AM 26.0°F-3.3°C 28.3°F-2.1°C 79% 5.6 mph NNW9.0 kmh NNW 5.6 mph9.0 kmh 30.09 in1019.0 mb 0.00 in0.0 mm 0.00 in0.0 mm 0.00 in0.0 mm
06:30 AM 25.9°F-3.4°C 28.7°F-1.8°C 80% 4.0 mph ESE6.4 kmh ESE 4.0 mph6.4 kmh 30.09 in1019.0 mb 0.00 in0.0 mm 0.00 in0.0 mm 0.00 in0.0 mm
06:33 AM 26.3°F-3.2°C 28.7°F-1.8°C 80% 5.6 mph ESE9.0 kmh ESE 5.6 mph9.0 kmh 30.10 in1019.3 mb 0.00 in0.0 mm 0.00 in0.0 mm 0.00 in0.0 mm
06:36 AM 26.0°F-3.3°C 28.8°F-1.8°C 80% 4.8 mph ESE7.7 kmh ESE 4.9 mph7.9 kmh 30.09 in1019.0 mb 0.00 in0.0 mm 0.00 in0.0 mm 0.00 in0.0 mm
06:39 AM 26.9°F-2.8°C 28.5°F-1.9°C 81% 5.9 mph ESE9.5 kmh ESE 6.0 mph9.7 kmh 30.09 in1019.0 mb 0.00 in0.0 mm 0.00 in0.0 mm 0.00 in0.0 mm
06:42 AM 26.5°F-3.1°C 28.8°F-1.8°C 80% 4.6 mph SE7.4 kmh SE 4.6 mph7.4 kmh 30.09 in1019.0 mb 0.00 in0.0 mm 0.00 in0.0 mm 0.00 in0.0 mm
06:45 AM 26.0°F-3.3°C 28.6°F-1.9°C 80% Calm Calm -- 30.10 in1019.3 mb 0.00 in0.0 mm 0.00 in0.0 mm 0.00 in0.0 mm
06:48 AM 26.0°F-3.3°C 28.6°F-1.9°C 80% Calm Calm -- 30.09 in1019.0 mb 0.00 in0.0 mm 0.00 in0.0 mm 0.00 in0.0 mm
06:54 AM 25.7°F-3.5°C 28.2°F-2.1°C 79% Calm Calm -- 30.09 in1019.0 mb 0.00 in0.0 mm 0.00 in0.0 mm 0.00 in0.0 mm
06:57 AM 26.3°F-3.2°C 28.1°F-2.2°C 80% 1.6 mph NNW2.6 kmh NNW 1.6 mph2.6 kmh 30.09 in1019.0 mb 0.00 in0.0 mm 0.00 in0.0 mm 0.00 in0.0 mm
07:00 AM 25.7°F-3.5°C 28.2°F-2.1°C 80% Calm Calm -- 30.09 in1019.0 mb 0.00 in0.0 mm 0.00 in0.0 mm 0.00 in0.0 mm
07:03 AM 25.7°F-3.5°C 28.3°F-2.1°C 79% 1.2 mph SE1.9 kmh SE 1.2 mph1.9 kmh 30.09 in1019.0 mb 0.00 in0.0 mm 0.00 in0.0 mm 0.00 in0.0 mm
07:06 AM 25.8°F-3.4°C 28.0°F-2.2°C 80% Calm Calm -- 30.09 in1019.0 mb 0.00 in0.0 mm 0.00 in0.0 mm 0.00 in0.0 mm
07:09 AM 25.4°F-3.7°C 28.1°F-2.2°C 79% 0.4 mph E0.6 kmh E 0.4 mph0.6 kmh 30.09 in1019.0 mb 0.00 in0.0 mm 0.00 in0.0 mm 0.00 in0.0 mm
07:12 AM 25.9°F-3.4°C 28.1°F-2.2°C 80% 4.8 mph ESE7.7 kmh ESE 4.8 mph7.7 kmh 30.10 in1019.3 mb 0.00 in0.0 mm 0.00 in0.0 mm 0.00 in0.0 mm
07:15 AM 25.6°F-3.6°C 28.2°F-2.1°C 80% 3.6 mph ESE5.8 kmh ESE 3.7 mph6.0 kmh 30.09 in1019.0 mb 0.00 in0.0 mm 0.00 in0.0 mm 0.00 in0.0 mm
07:18 AM 25.9°F-3.4°C 28.0°F-2.2°C 80% 3.2 mph NNW5.1 kmh NNW 3.3 mph5.3 kmh 30.09 in1019.0 mb 0.00 in0.0 mm 0.00 in0.0 mm 0.00 in0.0 mm
07:21 AM 25.1°F-3.8°C 28.2°F-2.1°C 80% Calm Calm -- 30.08 in1018.6 mb 0.00 in0.0 mm 0.00 in0.0 mm 0.00 in0.0 mm
07:27 AM 25.8°F-3.4°C 28.3°F-2.1°C 80% 5.6 mph ESE9.0 kmh ESE 5.6 mph9.0 kmh 30.09 in1019.0 mb 0.00 in0.0 mm 0.00 in0.0 mm 0.00 in0.0 mm
07:30 AM 25.8°F-3.4°C 28.1°F-2.2°C 80% 3.2 mph ESE5.1 kmh ESE 3.3 mph5.3 kmh 30.09 in1019.0 mb 0.00 in0.0 mm 0.00 in0.0 mm 0.00 in0.0 mm
07:33 AM 24.9°F-3.9°C 28.2°F-2.1°C 80% Calm Calm -- 30.09 in1019.0 mb 0.00 in0.0 mm 0.00 in0.0 mm 0.00 in0.0 mm
07:36 AM 25.0°F-3.9°C 28.2°F-2.1°C 80% 0.8 mph SE1.3 kmh SE 0.8 mph1.3 kmh 30.09 in1019.0 mb 0.00 in0.0 mm 0.00 in0.0 mm 0.00 in0.0 mm
07:39 AM 25.6°F-3.6°C 27.8°F-2.3°C 80% 6.8 mph ESE10.9 kmh ESE 6.9 mph11.1 kmh 30.09 in1019.0 mb 0.00 in0.0 mm 0.00 in0.0 mm 0.00 in0.0 mm
07:42 AM 25.4°F-3.7°C 28.1°F-2.2°C 81% 4.0 mph SE6.4 kmh SE 4.0 mph6.4 kmh 30.09 in1019.0 mb 0.00 in0.0 mm 0.00 in0.0 mm 0.00 in0.0 mm
07:45 AM 25.9°F-3.4°C 28.0°F-2.2°C 81% 5.6 mph NNW9.0 kmh NNW 5.7 mph9.2 kmh 30.09 in1019.0 mb 0.00 in0.0 mm 0.00 in0.0 mm 0.00 in0.0 mm
07:48 AM 25.6°F-3.6°C 28.0°F-2.2°C 81% 1.2 mph E1.9 kmh E 1.2 mph1.9 kmh 30.09 in1019.0 mb 0.00 in0.0 mm 0.00 in0.0 mm 0.00 in0.0 mm
07:51 AM 25.7°F-3.5°C 27.7°F-2.4°C 80% 3.6 mph NNW5.8 kmh NNW 3.7 mph6.0 kmh 30.09 in1019.0 mb 0.00 in0.0 mm 0.00 in0.0 mm 0.00 in0.0 mm
07:54 AM 26.4°F-3.1°C 28.2°F-2.1°C 81% 7.2 mph ESE11.6 kmh ESE 7.3 mph11.7 kmh 30.08 in1018.6 mb 0.00 in0.0 mm 0.00 in0.0 mm 0.00 in0.0 mm
07:57 AM 26.3°F-3.2°C 28.1°F-2.2°C 81% 3.6 mph SE5.8 kmh SE 3.6 mph5.8 kmh 30.08 in1018.6 mb 0.00 in0.0 mm 0.00 in0.0 mm 0.00 in0.0 mm
08:00 AM 25.8°F-3.4°C 28.1°F-2.2°C 81% Calm Calm -- 30.09 in1019.0 mb 0.00 in0.0 mm 0.00 in0.0 mm 0.00 in0.0 mm
08:03 AM 26.7°F-2.9°C 27.8°F-2.3°C 81% 8.2 mph E13.2 kmh E 8.3 mph13.4 kmh 30.08 in1018.6 mb 0.00 in0.0 mm 0.00 in0.0 mm 0.00 in0.0 mm
08:06 AM 26.4°F-3.1°C 28.1°F-2.2°C 81% 8.5 mph E13.7 kmh E 8.6 mph13.8 kmh 30.09 in1019.0 mb 0.00 in0.0 mm 0.00 in0.0 mm 0.00 in0.0 mm
08:09 AM 26.5°F-3.1°C 28.2°F-2.1°C 81% 7.3 mph ESE11.7 kmh ESE 7.3 mph11.7 kmh 30.09 in1019.0 mb 0.00 in0.0 mm 0.00 in0.0 mm 0.00 in0.0 mm
08:12 AM 26.6°F-3.0°C 28.1°F-2.2°C 81% 7.9 mph NNW12.7 kmh NNW 8.0 mph12.9 kmh 30.09 in1019.0 mb 0.00 in0.0 mm 0.00 in0.0 mm 0.00 in0.0 mm
08:15 AM 27.1°F-2.7°C 27.8°F-2.3°C 82% 9.3 mph ESE15.0 kmh ESE 9.3 mph15.0 kmh 30.09 in1019.0 mb 0.00 in0.0 mm 0.00 in0.0 mm 0.00 in0.0 mm
08:18 AM 26.7°F-2.9°C 28.2°F-2.1°C 82% 6.1 mph SE9.8 kmh SE 6.1 mph9.8 kmh 30.09 in1019.0 mb 0.00 in0.0 mm 0.00 in0.0 mm 0.00 in0.0 mm
08:21 AM 26.7°F-2.9°C 28.1°F-2.2°C 82% 8.5 mph ESE13.7 kmh ESE 8.6 mph13.8 kmh 30.09 in1019.0 mb 0.00 in0.0 mm 0.00 in0.0 mm 0.00 in0.0 mm
08:24 AM 26.5°F-3.1°C 28.5°F-1.9°C 82% 6.0 mph E9.7 kmh E 6.0 mph9.7 kmh 30.09 in1019.0 mb 0.00 in0.0 mm 0.00 in0.0 mm 0.00 in0.0 mm
08:27 AM 26.6°F-3.0°C 28.3°F-2.1°C 82% 8.1 mph ESE13.0 kmh ESE 8.1 mph13.0 kmh 30.09 in1019.0 mb 0.00 in0.0 mm 0.00 in0.0 mm 0.00 in0.0 mm
08:30 AM 26.9°F-2.8°C 28.1°F-2.2°C 82% 8.3 mph ESE13.4 kmh ESE 8.4 mph13.5 kmh 30.08 in1018.6 mb 0.00 in0.0 mm 0.00 in0.0 mm 0.00 in0.0 mm
08:33 AM 27.1°F-2.7°C 28.3°F-2.1°C 82% 9.3 mph ESE15.0 kmh ESE 9.4 mph15.1 kmh 30.08 in1018.6 mb 0.00 in0.0 mm 0.00 in0.0 mm 0.00 in0.0 mm
08:36 AM 26.8°F-2.9°C 28.5°F-1.9°C 82% 7.0 mph ESE11.3 kmh ESE 7.1 mph11.4 kmh 30.08 in1018.6 mb 0.00 in0.0 mm 0.00 in0.0 mm 0.00 in0.0 mm
08:39 AM 26.9°F-2.8°C 28.6°F-1.9°C 82% 5.2 mph ESE8.4 kmh ESE 5.2 mph8.4 kmh 30.08 in1018.6 mb 0.00 in0.0 mm 0.00 in0.0 mm 0.00 in0.0 mm
08:42 AM 27.1°F-2.7°C 28.6°F-1.9°C 82% 4.6 mph E7.4 kmh E 4.6 mph7.4 kmh 30.08 in1018.6 mb 0.00 in0.0 mm 0.00 in0.0 mm 0.00 in0.0 mm
08:45 AM 27.3°F-2.6°C 28.2°F-2.1°C 81% 8.3 mph ESE13.4 kmh ESE 8.4 mph13.5 kmh 30.08 in1018.6 mb 0.00 in0.0 mm 0.00 in0.0 mm 0.00 in0.0 mm
08:48 AM 27.6°F-2.4°C 28.3°F-2.1°C 82% 9.6 mph E15.4 kmh E 9.7 mph15.6 kmh 30.09 in1019.0 mb 0.00 in0.0 mm 0.00 in0.0 mm 0.00 in0.0 mm
08:51 AM 27.7°F-2.4°C 28.5°F-1.9°C 82% 10.9 mph SE17.5 kmh SE 11.0 mph17.7 kmh 30.09 in1019.0 mb 0.00 in0.0 mm 0.00 in0.0 mm 0.00 in0.0 mm
08:54 AM 27.8°F-2.3°C 28.6°F-1.9°C 81% 8.9 mph NNW14.3 kmh NNW 8.9 mph14.3 kmh 30.09 in1019.0 mb 0.00 in0.0 mm 0.00 in0.0 mm 0.00 in0.0 mm
08:57 AM 27.7°F-2.4°C 28.5°F-1.9°C 81% 8.5 mph ESE13.7 kmh ESE 8.6 mph13.8 kmh 30.08 in1018.6 mb 0.00 in0.0 mm 0.00 in0.0 mm 0.00 in0.0 mm
09:00 AM 27.7°F-2.4°C 28.7°F-1.8°C 82% 6.5 mph SE10.5 kmh SE 6.5 mph10.5 kmh 30.09 in1019.0 mb 0.00 in0.0 mm 0.00 in0.0 mm 0.00 in0.0 mm
09:03 AM 27.7°F-2.4°C 28.7°F-1.8°C 81% 7.9 mph NNW12.7 kmh NNW 8.0 mph12.9 kmh 30.08 in1018.6 mb 0.00 in0.0 mm 0.00 in0.0 mm 0.00 in0.0 mm
09:06 AM 28.0°F-2.2°C 28.9°F-1.7°C 81% 8.8 mph ESE14.2 kmh ESE 8.9 mph14.3 kmh 30.09 in1019.0 mb 0.00 in0.0 mm 0.00 in0.0 mm 0.00 in0.0 mm
09:09 AM 28.2°F-2.1°C 28.7°F-1.8°C 81% 7.1 mph ESE11.4 kmh ESE 7.2 mph11.6 kmh 30.08 in1018.6 mb 0.00 in0.0 mm 0.00 in0.0 mm 0.00 in0.0 mm
09:12 AM 28.1°F-2.2°C 29.0°F-1.7°C 82% 5.1 mph NNW8.2 kmh NNW 5.2 mph8.4 kmh 30.08 in1018.6 mb 0.00 in0.0 mm 0.00 in0.0 mm 0.00 in0.0 mm
09:15 AM 28.3°F-2.1°C 29.1°F-1.6°C 81% 6.7 mph ESE10.8 kmh ESE 6.7 mph10.8 kmh 30.08 in1018.6 mb 0.00 in0.0 mm 0.00 in0.0 mm 0.00 in0.0 mm
09:18 AM 28.5°F-1.9°C 29.0°F-1.7°C 81% 10.1 mph SE16.3 kmh SE 10.2 mph16.4 kmh 30.08 in1018.6 mb 0.00 in0.0 mm 0.00 in0.0 mm 0.00 in0.0 mm
09:21 AM 28.7°F-1.8°C 28.5°F-1.9°C 80% 7.7 mph ESE12.4 kmh ESE 7.7 mph12.4 kmh 30.08 in1018.6 mb 0.00 in0.0 mm 0.00 in0.0 mm 0.00 in0.0 mm
09:24 AM 28.6°F-1.9°C 29.0°F-1.7°C 80% 4.4 mph SE7.1 kmh SE 4.4 mph7.1 kmh 30.09 in1019.0 mb 0.00 in0.0 mm 0.00 in0.0 mm 0.00 in0.0 mm
09:27 AM 28.6°F-1.9°C 28.9°F-1.7°C 80% 9.1 mph SE14.6 kmh SE 9.1 mph14.6 kmh 30.09 in1019.0 mb 0.00 in0.0 mm 0.00 in0.0 mm 0.00 in0.0 mm
09:30 AM 28.4°F-2.0°C 29.1°F-1.6°C 80% 5.3 mph SE8.5 kmh SE 5.3 mph8.5 kmh 30.09 in1019.0 mb 0.00 in0.0 mm 0.00 in0.0 mm 0.00 in0.0 mm
09:33 AM 28.5°F-1.9°C 28.9°F-1.7°C 80% 5.2 mph SE8.4 kmh SE 5.3 mph8.5 kmh 30.09 in1019.0 mb 0.00 in0.0 mm 0.00 in0.0 mm 0.00 in0.0 mm
09:36 AM 28.5°F-1.9°C 28.8°F-1.8°C 80% 3.2 mph SSE5.1 kmh SSE 3.3 mph5.3 kmh 30.09 in1019.0 mb 0.00 in0.0 mm 0.00 in0.0 mm 0.00 in0.0 mm
09:39 AM 28.5°F-1.9°C 29.2°F-1.6°C 80% Calm Calm -- 30.09 in1019.0 mb 0.00 in0.0 mm 0.00 in0.0 mm 0.00 in0.0 mm
09:42 AM 29.0°F-1.7°C 29.3°F-1.5°C 81% 6.8 mph SE10.9 kmh SE 6.9 mph11.1 kmh 30.09 in1019.0 mb 0.00 in0.0 mm 0.00 in0.0 mm 0.00 in0.0 mm
09:45 AM 29.2°F-1.6°C 29.3°F-1.5°C 81% 5.3 mph SE8.5 kmh SE 5.3 mph8.5 kmh 30.10 in1019.3 mb 0.00 in0.0 mm 0.00 in0.0 mm 0.00 in0.0 mm
09:48 AM 29.2°F-1.6°C 29.3°F-1.5°C 81% 4.2 mph SE6.8 kmh SE 4.3 mph6.9 kmh 30.09 in1019.0 mb 0.00 in0.0 mm 0.00 in0.0 mm 0.00 in0.0 mm
09:51 AM 29.3°F-1.5°C 29.6°F-1.3°C 81% 4.0 mph SE6.4 kmh SE 4.0 mph6.4 kmh 30.10 in1019.3 mb 0.00 in0.0 mm 0.00 in0.0 mm 0.00 in0.0 mm
09:54 AM 29.4°F-1.4°C 29.4°F-1.4°C 79% 2.7 mph NNW4.3 kmh NNW 2.9 mph4.7 kmh 30.09 in1019.0 mb 0.00 in0.0 mm 0.00 in0.0 mm 0.00 in0.0 mm
09:57 AM 29.5°F-1.4°C 29.5°F-1.4°C 80% 3.6 mph SE5.8 kmh SE 3.6 mph5.8 kmh 30.09 in1019.0 mb 0.00 in0.0 mm 0.00 in0.0 mm 0.00 in0.0 mm
10:00 AM 29.6°F-1.3°C 29.7°F-1.3°C 80% 3.2 mph SSE5.1 kmh SSE 3.3 mph5.3 kmh 30.09 in1019.0 mb 0.00 in0.0 mm 0.00 in0.0 mm 0.00 in0.0 mm
10:03 AM 29.8°F-1.2°C 29.3°F-1.5°C 80% 4.8 mph SE7.7 kmh SE 4.8 mph7.7 kmh 30.09 in1019.0 mb 0.00 in0.0 mm 0.00 in0.0 mm 0.00 in0.0 mm
10:06 AM 29.9°F-1.2°C 29.5°F-1.4°C 80% 3.6 mph NNW5.8 kmh NNW 3.6 mph5.8 kmh 30.09 in1019.0 mb 0.00 in0.0 mm 0.00 in0.0 mm 0.00 in0.0 mm
10:09 AM 29.9°F-1.2°C 29.1°F-1.6°C 79% 4.9 mph SE7.9 kmh SE 4.9 mph7.9 kmh 30.09 in1019.0 mb 0.00 in0.0 mm 0.00 in0.0 mm 0.00 in0.0 mm
10:12 AM 29.9°F-1.2°C 28.8°F-1.8°C 79% 10.7 mph SE17.2 kmh SE 10.8 mph17.4 kmh 30.10 in1019.3 mb 0.00 in0.0 mm 0.00 in0.0 mm 0.00 in0.0 mm
10:15 AM 30.0°F-1.1°C 29.0°F-1.7°C 79% 8.5 mph E13.7 kmh E 8.5 mph13.7 kmh 30.08 in1018.6 mb 0.00 in0.0 mm 0.00 in0.0 mm 0.00 in0.0 mm
10:18 AM 30.2°F-1.0°C 29.1°F-1.6°C 79% 7.3 mph SE11.7 kmh SE 7.3 mph11.7 kmh 30.09 in1019.0 mb 0.00 in0.0 mm 0.00 in0.0 mm 0.00 in0.0 mm
10:21 AM 30.2°F-1.0°C 29.2°F-1.6°C 79% 7.6 mph SE12.2 kmh SE 7.7 mph12.4 kmh 30.09 in1019.0 mb 0.00 in0.0 mm 0.00 in0.0 mm 0.00 in0.0 mm
10:24 AM 30.2°F-1.0°C 29.3°F-1.5°C 79% 4.6 mph SE7.4 kmh SE 4.7 mph7.6 kmh 30.08 in1018.6 mb 0.00 in0.0 mm 0.00 in0.0 mm 0.00 in0.0 mm
10:27 AM 30.4°F-0.9°C 29.2°F-1.6°C 78% 10.3 mph ESE16.6 kmh ESE 10.4 mph16.7 kmh 30.08 in1018.6 mb 0.00 in0.0 mm 0.00 in0.0 mm 0.00 in0.0 mm
10:30 AM 30.4°F-0.9°C 29.2°F-1.6°C 78% 6.1 mph NNW9.8 kmh NNW 6.1 mph9.8 kmh 30.09 in1019.0 mb 0.00 in0.0 mm 0.00 in0.0 mm 0.00 in0.0 mm
10:33 AM 30.7°F-0.7°C 29.4°F-1.4°C 78% 6.5 mph ESE10.5 kmh ESE 6.5 mph10.5 kmh 30.08 in1018.6 mb 0.00 in0.0 mm 0.00 in0.0 mm 0.00 in0.0 mm
10:36 AM 30.8°F-0.7°C 29.5°F-1.4°C 78% 3.6 mph ESE5.8 kmh ESE 3.7 mph6.0 kmh 30.09 in1019.0 mb 0.00 in0.0 mm 0.00 in0.0 mm 0.00 in0.0 mm
10:39 AM 30.7°F-0.7°C 29.7°F-1.3°C 78% 6.5 mph ESE10.5 kmh ESE 6.5 mph10.5 kmh 30.08 in1018.6 mb 0.00 in0.0 mm 0.00 in0.0 mm 0.00 in0.0 mm
10:42 AM 30.7°F-0.7°C 29.5°F-1.4°C 78% 5.7 mph ESE9.2 kmh ESE 6.1 mph9.8 kmh 30.08 in1018.6 mb 0.00 in0.0 mm 0.00 in0.0 mm 0.00 in0.0 mm
10:45 AM 30.7°F-0.7°C 29.3°F-1.5°C 77% 6.5 mph ESE10.5 kmh ESE 6.5 mph10.5 kmh 30.09 in1019.0 mb 0.00 in0.0 mm 0.00 in0.0 mm 0.00 in0.0 mm
10:48 AM 30.7°F-0.7°C 29.1°F-1.6°C 77% 9.7 mph ESE15.6 kmh ESE 9.8 mph15.8 kmh 30.08 in1018.6 mb 0.00 in0.0 mm 0.00 in0.0 mm 0.00 in0.0 mm
10:51 AM 30.7°F-0.7°C 29.5°F-1.4°C 78% 5.7 mph E9.2 kmh E 5.7 mph9.2 kmh 30.08 in1018.6 mb 0.00 in0.0 mm 0.00 in0.0 mm 0.00 in0.0 mm
10:54 AM 30.9°F-0.6°C 29.6°F-1.3°C 77% 1.6 mph ESE2.6 kmh ESE 1.6 mph2.6 kmh 30.08 in1018.6 mb 0.00 in0.0 mm 0.00 in0.0 mm 0.00 in0.0 mm
10:57 AM 31.1°F-0.5°C 29.6°F-1.3°C 77% 8.5 mph SE13.7 kmh SE 8.6 mph13.8 kmh 30.08 in1018.6 mb 0.00 in0.0 mm 0.00 in0.0 mm 0.00 in0.0 mm
11:00 AM 31.6°F-0.2°C 29.6°F-1.3°C 78% 8.5 mph SE13.7 kmh SE 8.6 mph13.8 kmh 30.08 in1018.6 mb 0.00 in0.0 mm 0.00 in0.0 mm 0.00 in0.0 mm
11:03 AM 31.4°F-0.3°C 29.4°F-1.4°C 78% 9.5 mph ESE15.3 kmh ESE 9.6 mph15.4 kmh 30.07 in1018.3 mb 0.00 in0.0 mm 0.00 in0.0 mm 0.00 in0.0 mm
11:06 AM 31.2°F-0.4°C 28.5°F-1.9°C 76% 8.3 mph SE13.4 kmh SE 8.3 mph13.4 kmh 30.07 in1018.3 mb 0.00 in0.0 mm 0.00 in0.0 mm 0.00 in0.0 mm
11:09 AM 31.2°F-0.4°C 29.4°F-1.4°C 77% 11.5 mph ESE18.5 kmh ESE 11.6 mph18.7 kmh 30.07 in1018.3 mb 0.00 in0.0 mm 0.00 in0.0 mm 0.00 in0.0 mm
11:12 AM 31.2°F-0.4°C 29.4°F-1.4°C 77% 7.7 mph NNW12.4 kmh NNW 7.8 mph12.6 kmh 30.07 in1018.3 mb 0.00 in0.0 mm 0.00 in0.0 mm 0.00 in0.0 mm
11:15 AM 31.0°F-0.6°C 29.2°F-1.6°C 77% 10.9 mph ESE17.5 kmh ESE 11.0 mph17.7 kmh 30.07 in1018.3 mb 0.00 in0.0 mm 0.00 in0.0 mm 0.00 in0.0 mm
11:18 AM 31.1°F-0.5°C 29.5°F-1.4°C 77% 8.1 mph ESE13.0 kmh ESE 8.1 mph13.0 kmh 30.07 in1018.3 mb 0.00 in0.0 mm 0.00 in0.0 mm 0.00 in0.0 mm
11:21 AM 31.3°F-0.4°C 29.3°F-1.5°C 77% 7.6 mph ESE12.2 kmh ESE 7.6 mph12.2 kmh 30.07 in1018.3 mb 0.00 in0.0 mm 0.00 in0.0 mm 0.00 in0.0 mm
11:24 AM 31.2°F-0.4°C 28.8°F-1.8°C 75% 6.1 mph ESE9.8 kmh ESE 6.1 mph9.8 kmh 30.07 in1018.3 mb 0.00 in0.0 mm 0.00 in0.0 mm 0.00 in0.0 mm
11:27 AM 31.7°F-0.2°C 29.2°F-1.6°C 76% 9.1 mph ESE14.6 kmh ESE 9.2 mph14.8 kmh 30.07 in1018.3 mb 0.00 in0.0 mm 0.00 in0.0 mm 0.00 in0.0 mm
11:30 AM 31.8°F-0.1°C 29.6°F-1.3°C 75% 11.7 mph SE18.8 kmh SE 11.7 mph18.8 kmh 30.07 in1018.3 mb 0.00 in0.0 mm 0.00 in0.0 mm 0.00 in0.0 mm
11:33 AM 31.2°F-0.4°C 29.2°F-1.6°C 75% 9.7 mph SE15.6 kmh SE 9.7 mph15.6 kmh 30.07 in1018.3 mb 0.00 in0.0 mm 0.00 in0.0 mm 0.00 in0.0 mm
11:36 AM 31.2°F-0.4°C 29.8°F-1.2°C 77% 8.7 mph ESE14.0 kmh ESE 8.8 mph14.2 kmh 30.07 in1018.3 mb 0.00 in0.0 mm 0.00 in0.0 mm 0.00 in0.0 mm
11:39 AM 31.2°F-0.4°C 29.0°F-1.7°C 74% 5.9 mph SE9.5 kmh SE 6.0 mph9.7 kmh 30.06 in1017.9 mb 0.00 in0.0 mm 0.00 in0.0 mm 0.00 in0.0 mm
11:42 AM 31.4°F-0.3°C 29.6°F-1.3°C 75% 2.8 mph E4.5 kmh E 2.8 mph4.5 kmh 30.07 in1018.3 mb 0.00 in0.0 mm 0.00 in0.0 mm 0.00 in0.0 mm
11:45 AM 31.2°F-0.4°C 29.0°F-1.7°C 75% 12.9 mph SE20.8 kmh SE 12.9 mph20.8 kmh 30.06 in1017.9 mb 0.00 in0.0 mm 0.00 in0.0 mm 0.00 in0.0 mm
11:48 AM 31.2°F-0.4°C 29.3°F-1.5°C 76% 4.0 mph ESE6.4 kmh ESE 4.1 mph6.6 kmh 30.06 in1017.9 mb 0.00 in0.0 mm 0.00 in0.0 mm 0.00 in0.0 mm
11:51 AM 31.2°F-0.4°C 29.1°F-1.6°C 75% 10.9 mph ESE17.5 kmh ESE 11.0 mph17.7 kmh 30.06 in1017.9 mb 0.00 in0.0 mm 0.00 in0.0 mm 0.00 in0.0 mm
11:54 AM 31.4°F-0.3°C 29.5°F-1.4°C 76% 7.2 mph ESE11.6 kmh ESE 7.3 mph11.7 kmh 30.05 in1017.6 mb 0.00 in0.0 mm 0.00 in0.0 mm 0.00 in0.0 mm
11:57 AM 32.1°F0.1°C 29.8°F-1.2°C 76% 5.2 mph ESE8.4 kmh ESE 5.3 mph8.5 kmh 30.05 in1017.6 mb 0.00 in0.0 mm 0.00 in0.0 mm 0.00 in0.0 mm
12:00 PM 32.2°F0.1°C 30.5°F-0.8°C 77% 7.3 mph SE11.7 kmh SE 7.3 mph11.7 kmh 30.05 in1017.6 mb 0.00 in0.0 mm 0.00 in0.0 mm 0.00 in0.0 mm
12:03 PM 32.7°F0.4°C 29.8°F-1.2°C 75% 7.2 mph NNW11.6 kmh NNW 7.2 mph11.6 kmh 30.05 in1017.6 mb 0.00 in0.0 mm 0.00 in0.0 mm 0.00 in0.0 mm
12:06 PM 32.6°F0.3°C 29.5°F-1.4°C 74% 10.1 mph NNW16.3 kmh NNW 10.2 mph16.4 kmh 30.05 in1017.6 mb 0.00 in0.0 mm 0.00 in0.0 mm 0.00 in0.0 mm
12:09 PM 32.0°F0.0°C 29.2°F-1.6°C 74% 9.7 mph ESE15.6 kmh ESE 9.8 mph15.8 kmh 30.05 in1017.6 mb 0.00 in0.0 mm 0.00 in0.0 mm 0.00 in0.0 mm
12:12 PM 32.2°F0.1°C 30.2°F-1.0°C 75% 6.1 mph ESE9.8 kmh ESE 6.1 mph9.8 kmh 30.05 in1017.6 mb 0.00 in0.0 mm 0.00 in0.0 mm 0.00 in0.0 mm
12:15 PM 32.3°F0.2°C 30.0°F-1.1°C 75% 3.2 mph E5.1 kmh E 3.3 mph5.3 kmh 30.05 in1017.6 mb 0.00 in0.0 mm 0.00 in0.0 mm 0.00 in0.0 mm
12:18 PM 32.0°F0.0°C 29.1°F-1.6°C 73% 10.3 mph NNW16.6 kmh NNW 10.4 mph16.7 kmh 30.05 in1017.6 mb 0.00 in0.0 mm 0.00 in0.0 mm 0.00 in0.0 mm
12:21 PM 32.8°F0.4°C 29.8°F-1.2°C 75% 3.2 mph NNW5.1 kmh NNW 3.3 mph5.3 kmh 30.05 in1017.6 mb 0.00 in0.0 mm 0.00 in0.0 mm 0.00 in0.0 mm
12:24 PM 32.3°F0.2°C 29.7°F-1.3°C 74% 7.3 mph NNW11.7 kmh NNW 7.3 mph11.7 kmh 30.05 in1017.6 mb 0.00 in0.0 mm 0.00 in0.0 mm 0.00 in0.0 mm
12:27 PM 31.9°F-0.1°C 29.6°F-1.3°C 73% 13.7 mph ESE22.0 kmh ESE 13.9 mph22.4 kmh 30.05 in1017.6 mb 0.00 in0.0 mm 0.00 in0.0 mm 0.00 in0.0 mm
12:30 PM 31.7°F-0.2°C 29.6°F-1.3°C 75% 7.8 mph SE12.6 kmh SE 7.9 mph12.7 kmh 30.04 in1017.3 mb 0.00 in0.0 mm 0.00 in0.0 mm 0.00 in0.0 mm
12:33 PM 31.8°F-0.1°C 29.3°F-1.5°C 74% 12.5 mph NNW20.1 kmh NNW 12.5 mph20.1 kmh 30.04 in1017.3 mb 0.00 in0.0 mm 0.00 in0.0 mm 0.00 in0.0 mm
12:36 PM 32.0°F0.0°C 29.6°F-1.3°C 75% 10.5 mph ESE16.9 kmh ESE 10.6 mph17.1 kmh 30.04 in1017.3 mb 0.00 in0.0 mm 0.00 in0.0 mm 0.00 in0.0 mm
12:39 PM 31.9°F-0.1°C 28.9°F-1.7°C 74% 11.7 mph ESE18.8 kmh ESE 11.7 mph18.8 kmh 30.03 in1016.9 mb 0.00 in0.0 mm 0.00 in0.0 mm 0.00 in0.0 mm
12:42 PM 32.0°F0.0°C 29.4°F-1.4°C 75% 5.6 mph NNW9.0 kmh NNW 5.6 mph9.0 kmh 30.04 in1017.3 mb 0.00 in0.0 mm 0.00 in0.0 mm 0.00 in0.0 mm
12:48 PM 31.7°F-0.2°C 28.8°F-1.8°C 73% 10.5 mph ESE16.9 kmh ESE 10.5 mph16.9 kmh 30.03 in1016.9 mb 0.00 in0.0 mm 0.00 in0.0 mm 0.00 in0.0 mm
12:51 PM 31.4°F-0.3°C 29.0°F-1.7°C 74% 11.3 mph NNW18.2 kmh NNW 11.4 mph18.3 kmh 30.04 in1017.3 mb 0.00 in0.0 mm 0.00 in0.0 mm 0.00 in0.0 mm
12:54 PM 31.7°F-0.2°C 29.4°F-1.4°C 74% 7.7 mph ESE12.4 kmh ESE 7.7 mph12.4 kmh 30.03 in1016.9 mb 0.00 in0.0 mm 0.00 in0.0 mm 0.00 in0.0 mm
12:57 PM 31.7°F-0.2°C 28.7°F-1.8°C 73% 12.1 mph SE19.5 kmh SE 12.1 mph19.5 kmh 30.03 in1016.9 mb 0.00 in0.0 mm 0.00 in0.0 mm 0.00 in0.0 mm
01:00 PM 31.8°F-0.1°C 28.9°F-1.7°C 74% 10.0 mph ESE16.1 kmh ESE 10.0 mph16.1 kmh 30.03 in1016.9 mb 0.00 in0.0 mm 0.00 in0.0 mm 0.00 in0.0 mm
01:03 PM 31.4°F-0.3°C 29.1°F-1.6°C 74% 12.7 mph ESE20.4 kmh ESE 12.8 mph20.6 kmh 30.03 in1016.9 mb 0.00 in0.0 mm 0.00 in0.0 mm 0.00 in0.0 mm
01:06 PM 31.6°F-0.2°C 29.4°F-1.4°C 75% 7.7 mph SE12.4 kmh SE 7.7 mph12.4 kmh 30.03 in1016.9 mb 0.00 in0.0 mm 0.00 in0.0 mm 0.00 in0.0 mm
01:09 PM 31.8°F-0.1°C 29.2°F-1.6°C 74% 3.2 mph E5.1 kmh E 3.3 mph5.3 kmh 30.03 in1016.9 mb 0.00 in0.0 mm 0.00 in0.0 mm 0.00 in0.0 mm
01:12 PM 31.7°F-0.2°C 29.3°F-1.5°C 74% 11.5 mph E18.5 kmh E 11.6 mph18.7 kmh 30.03 in1016.9 mb 0.00 in0.0 mm 0.00 in0.0 mm 0.00 in0.0 mm
01:15 PM 31.6°F-0.2°C 29.2°F-1.6°C 74% 4.9 mph E7.9 kmh E 4.9 mph7.9 kmh 30.03 in1016.9 mb 0.00 in0.0 mm 0.00 in0.0 mm 0.00 in0.0 mm
01:18 PM 31.7°F-0.2°C 29.1°F-1.6°C 73% 9.7 mph NNW15.6 kmh NNW 9.8 mph15.8 kmh 30.03 in1016.9 mb 0.00 in0.0 mm 0.00 in0.0 mm 0.00 in0.0 mm
01:21 PM 31.4°F-0.3°C 29.2°F-1.6°C 74% 7.2 mph ESE11.6 kmh ESE 7.2 mph11.6 kmh 30.03 in1016.9 mb 0.00 in0.0 mm 0.00 in0.0 mm 0.00 in0.0 mm
01:24 PM 31.1°F-0.5°C 28.8°F-1.8°C 74% 6.8 mph NNW10.9 kmh NNW 6.8 mph10.9 kmh 30.03 in1016.9 mb 0.00 in0.0 mm 0.00 in0.0 mm 0.00 in0.0 mm
01:27 PM 30.9°F-0.6°C 28.5°F-1.9°C 74% 9.5 mph ESE15.3 kmh ESE 9.6 mph15.4 kmh 30.03 in1016.9 mb 0.00 in0.0 mm 0.00 in0.0 mm 0.00 in0.0 mm
01:30 PM 30.8°F-0.7°C 28.5°F-1.9°C 73% 2.0 mph SE3.2 kmh SE 2.0 mph3.2 kmh 30.03 in1016.9 mb 0.00 in0.0 mm 0.00 in0.0 mm 0.00 in0.0 mm
01:33 PM 30.9°F-0.6°C 28.7°F-1.8°C 74% 15.0 mph ESE24.1 kmh ESE 15.1 mph24.3 kmh 30.03 in1016.9 mb 0.00 in0.0 mm 0.00 in0.0 mm 0.00 in0.0 mm
01:36 PM 30.9°F-0.6°C 28.2°F-2.1°C 73% 14.9 mph SE24.0 kmh SE 15.1 mph24.3 kmh 30.03 in1016.9 mb 0.00 in0.0 mm 0.00 in0.0 mm 0.00 in0.0 mm
01:39 PM 30.9°F-0.6°C 28.7°F-1.8°C 74% 11.5 mph ESE18.5 kmh ESE 11.6 mph18.7 kmh 30.03 in1016.9 mb 0.00 in0.0 mm 0.00 in0.0 mm 0.00 in0.0 mm
01:42 PM 30.9°F-0.6°C 28.7°F-1.8°C 74% 9.3 mph ESE15.0 kmh ESE 9.4 mph15.1 kmh 30.03 in1016.9 mb 0.00 in0.0 mm 0.00 in0.0 mm 0.00 in0.0 mm
01:45 PM 30.9°F-0.6°C 28.7°F-1.8°C 74% 9.1 mph E14.6 kmh E 9.2 mph14.8 kmh 30.03 in1016.9 mb 0.00 in0.0 mm 0.00 in0.0 mm 0.00 in0.0 mm
01:48 PM 30.9°F-0.6°C 28.7°F-1.8°C 73% 12.1 mph E19.5 kmh E 12.2 mph19.6 kmh 30.03 in1016.9 mb 0.00 in0.0 mm 0.00 in0.0 mm 0.00 in0.0 mm
01:51 PM 30.8°F-0.7°C 29.1°F-1.6°C 75% 9.1 mph SE14.6 kmh SE 9.1 mph14.6 kmh 30.03 in1016.9 mb 0.00 in0.0 mm 0.00 in0.0 mm 0.00 in0.0 mm
01:54 PM 30.9°F-0.6°C 28.8°F-1.8°C 74% 11.7 mph NNW18.8 kmh NNW 11.8 mph19.0 kmh 30.03 in1016.9 mb 0.00 in0.0 mm 0.00 in0.0 mm 0.00 in0.0 mm
01:57 PM 30.9°F-0.6°C 28.4°F-2.0°C 75% 14.1 mph SE22.7 kmh SE 14.3 mph23.0 kmh 30.03 in1016.9 mb 0.00 in0.0 mm 0.00 in0.0 mm 0.00 in0.0 mm
02:00 PM 31.0°F-0.6°C 28.5°F-1.9°C 75% 9.3 mph SE15.0 kmh SE 9.4 mph15.1 kmh 30.03 in1016.9 mb 0.00 in0.0 mm 0.00 in0.0 mm 0.00 in0.0 mm
02:03 PM 31.1°F-0.5°C 28.9°F-1.7°C 75% 10.3 mph SE16.6 kmh SE 10.4 mph16.7 kmh 30.03 in1016.9 mb 0.00 in0.0 mm 0.00 in0.0 mm 0.00 in0.0 mm
02:06 PM 31.1°F-0.5°C 28.4°F-2.0°C 74% 12.5 mph ESE20.1 kmh ESE 12.5 mph20.1 kmh 30.03 in1016.9 mb 0.00 in0.0 mm 0.00 in0.0 mm 0.00 in0.0 mm
02:09 PM 31.1°F-0.5°C 28.7°F-1.8°C 74% 10.5 mph ESE16.9 kmh ESE 10.6 mph17.1 kmh 30.03 in1016.9 mb 0.00 in0.0 mm 0.00 in0.0 mm 0.00 in0.0 mm
02:12 PM 31.1°F-0.5°C 28.8°F-1.8°C 74% 8.5 mph SE13.7 kmh SE 8.6 mph13.8 kmh 30.03 in1016.9 mb 0.00 in0.0 mm 0.00 in0.0 mm 0.00 in0.0 mm
02:15 PM 31.1°F-0.5°C 29.3°F-1.5°C 75% 7.5 mph NNW12.1 kmh NNW 7.6 mph12.2 kmh 30.02 in1016.6 mb 0.00 in0.0 mm 0.00 in0.0 mm 0.00 in0.0 mm
02:18 PM 31.1°F-0.5°C 29.3°F-1.5°C 75% 5.6 mph SE9.0 kmh SE 5.7 mph9.2 kmh 30.03 in1016.9 mb 0.00 in0.0 mm 0.00 in0.0 mm 0.00 in0.0 mm
02:21 PM 31.1°F-0.5°C 29.8°F-1.2°C 76% 6.9 mph ESE11.1 kmh ESE 6.9 mph11.1 kmh 30.02 in1016.6 mb 0.00 in0.0 mm 0.00 in0.0 mm 0.00 in0.0 mm
02:24 PM 31.1°F-0.5°C 29.3°F-1.5°C 75% 8.1 mph SE13.0 kmh SE 8.1 mph13.0 kmh 30.02 in1016.6 mb 0.00 in0.0 mm 0.00 in0.0 mm 0.00 in0.0 mm
02:27 PM 31.1°F-0.5°C 29.5°F-1.4°C 74% 6.1 mph SE9.8 kmh SE 6.1 mph9.8 kmh 30.02 in1016.6 mb 0.00 in0.0 mm 0.00 in0.0 mm 0.00 in0.0 mm
02:30 PM 31.1°F-0.5°C 29.9°F-1.2°C 76% 7.9 mph SE12.7 kmh SE 8.0 mph12.9 kmh 30.03 in1016.9 mb 0.00 in0.0 mm 0.00 in0.0 mm 0.00 in0.0 mm
02:33 PM 30.9°F-0.6°C 28.6°F-1.9°C 74% 9.5 mph NNW15.3 kmh NNW 9.6 mph15.4 kmh 30.02 in1016.6 mb 0.00 in0.0 mm 0.00 in0.0 mm 0.00 in0.0 mm
02:36 PM 31.0°F-0.6°C 28.8°F-1.8°C 74% 10.3 mph NNW16.6 kmh NNW 10.3 mph16.6 kmh 30.02 in1016.6 mb 0.00 in0.0 mm 0.00 in0.0 mm 0.00 in0.0 mm
02:39 PM 30.9°F-0.6°C 28.3°F-2.1°C 75% 11.7 mph SE18.8 kmh SE 11.8 mph19.0 kmh 30.02 in1016.6 mb 0.00 in0.0 mm 0.00 in0.0 mm 0.00 in0.0 mm
02:42 PM 30.7°F-0.7°C 29.0°F-1.7°C 75% 5.9 mph NNW9.5 kmh NNW 6.0 mph9.7 kmh 30.02 in1016.6 mb 0.00 in0.0 mm 0.00 in0.0 mm 0.00 in0.0 mm
02:45 PM 30.8°F-0.7°C 29.3°F-1.5°C 75% 4.4 mph E7.1 kmh E 4.5 mph7.2 kmh 30.02 in1016.6 mb 0.00 in0.0 mm 0.00 in0.0 mm 0.00 in0.0 mm
02:48 PM 30.7°F-0.7°C 28.9°F-1.7°C 74% 8.9 mph SE14.3 kmh SE 9.0 mph14.5 kmh 30.02 in1016.6 mb 0.00 in0.0 mm 0.00 in0.0 mm 0.00 in0.0 mm
02:51 PM 30.7°F-0.7°C 28.4°F-2.0°C 73% 8.0 mph SE12.9 kmh SE 8.0 mph12.9 kmh 30.02 in1016.6 mb 0.00 in0.0 mm 0.00 in0.0 mm 0.00 in0.0 mm
02:54 PM 30.7°F-0.7°C 28.5°F-1.9°C 74% 11.3 mph ESE18.2 kmh ESE 11.4 mph18.3 kmh 30.02 in1016.6 mb 0.00 in0.0 mm 0.00 in0.0 mm 0.00 in0.0 mm
02:57 PM 30.7°F-0.7°C 27.7°F-2.4°C 73% 13.3 mph SE21.4 kmh SE 13.3 mph21.4 kmh 30.02 in1016.6 mb 0.00 in0.0 mm 0.00 in0.0 mm 0.00 in0.0 mm
03:00 PM 30.7°F-0.7°C 27.6°F-2.4°C 73% 12.7 mph NNW20.4 kmh NNW 12.8 mph20.6 kmh 30.02 in1016.6 mb 0.00 in0.0 mm 0.00 in0.0 mm 0.00 in0.0 mm
03:03 PM 30.7°F-0.7°C 27.9°F-2.3°C 73% 10.1 mph NNW16.3 kmh NNW 10.2 mph16.4 kmh 30.02 in1016.6 mb 0.00 in0.0 mm 0.00 in0.0 mm 0.00 in0.0 mm
03:06 PM 30.7°F-0.7°C 27.8°F-2.3°C 72% 7.2 mph NNW11.6 kmh NNW 7.2 mph11.6 kmh 30.02 in1016.6 mb 0.00 in0.0 mm 0.00 in0.0 mm 0.00 in0.0 mm
03:09 PM 30.5°F-0.8°C 28.3°F-2.1°C 72% 7.5 mph NNW12.1 kmh NNW 7.6 mph12.2 kmh 30.02 in1016.6 mb 0.00 in0.0 mm 0.00 in0.0 mm 0.00 in0.0 mm
03:12 PM 30.7°F-0.7°C 28.1°F-2.2°C 73% 8.5 mph SE13.7 kmh SE 8.6 mph13.8 kmh 30.02 in1016.6 mb 0.00 in0.0 mm 0.00 in0.0 mm 0.00 in0.0 mm
03:15 PM 30.7°F-0.7°C 27.8°F-2.3°C 72% 14.1 mph NNW22.7 kmh NNW 14.1 mph22.7 kmh 30.02 in1016.6 mb 0.00 in0.0 mm 0.00 in0.0 mm 0.00 in0.0 mm
03:18 PM 30.4°F-0.9°C 28.3°F-2.1°C 73% 12.9 mph NNW20.8 kmh NNW 13.0 mph20.9 kmh 30.02 in1016.6 mb 0.00 in0.0 mm 0.00 in0.0 mm 0.00 in0.0 mm
03:21 PM 30.2°F-1.0°C 28.4°F-2.0°C 73% 7.3 mph ESE11.7 kmh ESE 7.3 mph11.7 kmh 30.02 in1016.6 mb 0.00 in0.0 mm 0.00 in0.0 mm 0.00 in0.0 mm
03:24 PM 30.1°F-1.1°C 28.3°F-2.1°C 74% 8.1 mph SE13.0 kmh SE 8.2 mph13.2 kmh 30.02 in1016.6 mb 0.00 in0.0 mm 0.00 in0.0 mm 0.00 in0.0 mm
03:27 PM 29.9°F-1.2°C 28.2°F-2.1°C 73% 5.6 mph ESE9.0 kmh ESE 5.6 mph9.0 kmh 30.02 in1016.6 mb 0.00 in0.0 mm 0.00 in0.0 mm 0.00 in0.0 mm
03:30 PM 29.9°F-1.2°C 28.2°F-2.1°C 73% 2.4 mph ESE3.9 kmh ESE 2.4 mph3.9 kmh 30.02 in1016.6 mb 0.00 in0.0 mm 0.00 in0.0 mm 0.00 in0.0 mm
03:33 PM 29.8°F-1.2°C 27.9°F-2.3°C 73% 7.1 mph ESE11.4 kmh ESE 7.2 mph11.6 kmh 30.02 in1016.6 mb 0.00 in0.0 mm 0.00 in0.0 mm 0.00 in0.0 mm
03:36 PM 29.5°F-1.4°C 28.5°F-1.9°C 73% 3.6 mph ESE5.8 kmh ESE 3.7 mph6.0 kmh 30.03 in1016.9 mb 0.00 in0.0 mm 0.00 in0.0 mm 0.00 in0.0 mm
03:39 PM 29.8°F-1.2°C 28.1°F-2.2°C 73% 10.3 mph ESE16.6 kmh ESE 10.3 mph16.6 kmh 30.03 in1016.9 mb 0.00 in0.0 mm 0.00 in0.0 mm 0.00 in0.0 mm
03:42 PM 29.8°F-1.2°C 28.2°F-2.1°C 73% 7.2 mph ESE11.6 kmh ESE 7.2 mph11.6 kmh 30.02 in1016.6 mb 0.00 in0.0 mm 0.00 in0.0 mm 0.00 in0.0 mm
03:45 PM 30.1°F-1.1°C 28.0°F-2.2°C 74% 2.4 mph NNW3.9 kmh NNW 2.4 mph3.9 kmh 30.03 in1016.9 mb 0.00 in0.0 mm 0.00 in0.0 mm 0.00 in0.0 mm
03:48 PM 30.0°F-1.1°C 28.6°F-1.9°C 74% 6.9 mph ESE11.1 kmh ESE 6.9 mph11.1 kmh 30.03 in1016.9 mb 0.00 in0.0 mm 0.00 in0.0 mm 0.00 in0.0 mm
03:51 PM 30.1°F-1.1°C 28.1°F-2.2°C 74% 11.7 mph NNW18.8 kmh NNW 11.8 mph19.0 kmh 30.03 in1016.9 mb 0.00 in0.0 mm 0.00 in0.0 mm 0.00 in0.0 mm
03:54 PM 30.1°F-1.1°C 27.9°F-2.3°C 74% 8.9 mph SE14.3 kmh SE 9.0 mph14.5 kmh 30.03 in1016.9 mb 0.00 in0.0 mm 0.00 in0.0 mm 0.00 in0.0 mm
03:57 PM 30.1°F-1.1°C 28.0°F-2.2°C 75% 7.7 mph SE12.4 kmh SE 7.7 mph12.4 kmh 30.02 in1016.6 mb 0.00 in0.0 mm 0.00 in0.0 mm 0.00 in0.0 mm
04:00 PM 30.1°F-1.1°C 28.4°F-2.0°C 75% 10.9 mph SE17.5 kmh SE 11.0 mph17.7 kmh 30.02 in1016.6 mb 0.00 in0.0 mm 0.00 in0.0 mm 0.00 in0.0 mm
04:03 PM 30.0°F-1.1°C 27.8°F-2.3°C 74% 7.7 mph ESE12.4 kmh ESE 7.7 mph12.4 kmh 30.02 in1016.6 mb 0.00 in0.0 mm 0.00 in0.0 mm 0.00 in0.0 mm
04:06 PM 29.9°F-1.2°C 27.8°F-2.3°C 74% 11.1 mph NNW17.9 kmh NNW 11.1 mph17.9 kmh 30.02 in1016.6 mb 0.00 in0.0 mm 0.00 in0.0 mm 0.00 in0.0 mm
04:09 PM 29.8°F-1.2°C 28.3°F-2.1°C 75% 6.0 mph SE9.7 kmh SE 6.0 mph9.7 kmh 30.02 in1016.6 mb 0.00 in0.0 mm 0.00 in0.0 mm 0.00 in0.0 mm
04:12 PM 29.8°F-1.2°C 28.3°F-2.1°C 74% 7.9 mph ESE12.7 kmh ESE 8.0 mph12.9 kmh 30.02 in1016.6 mb 0.00 in0.0 mm 0.00 in0.0 mm 0.00 in0.0 mm
04:15 PM 29.8°F-1.2°C 28.5°F-1.9°C 74% 6.5 mph NNW10.5 kmh NNW 6.5 mph10.5 kmh 30.02 in1016.6 mb 0.00 in0.0 mm 0.00 in0.0 mm 0.00 in0.0 mm
04:18 PM 29.8°F-1.2°C 28.5°F-1.9°C 75% 4.9 mph ESE7.9 kmh ESE 4.9 mph7.9 kmh 30.02 in1016.6 mb 0.00 in0.0 mm 0.00 in0.0 mm 0.00 in0.0 mm
04:21 PM 29.8°F-1.2°C 29.0°F-1.7°C 75% 5.6 mph ESE9.0 kmh ESE 5.6 mph9.0 kmh 30.02 in1016.6 mb 0.00 in0.0 mm 0.00 in0.0 mm 0.00 in0.0 mm
04:24 PM 29.9°F-1.2°C 29.1°F-1.6°C 76% 7.3 mph ESE11.7 kmh ESE 7.3 mph11.7 kmh 30.02 in1016.6 mb 0.00 in0.0 mm 0.00 in0.0 mm 0.00 in0.0 mm
04:27 PM 29.8°F-1.2°C 28.6°F-1.9°C 75% 2.4 mph NNW3.9 kmh NNW 2.4 mph3.9 kmh 30.02 in1016.6 mb 0.00 in0.0 mm 0.00 in0.0 mm 0.00 in0.0 mm
04:30 PM 29.9°F-1.2°C 28.8°F-1.8°C 76% 7.9 mph E12.7 kmh E 8.0 mph12.9 kmh 30.02 in1016.6 mb 0.00 in0.0 mm 0.00 in0.0 mm 0.00 in0.0 mm
04:33 PM 29.8°F-1.2°C 29.0°F-1.7°C 76% 6.7 mph NNW10.8 kmh NNW 6.8 mph10.9 kmh 30.02 in1016.6 mb 0.00 in0.0 mm 0.00 in0.0 mm 0.00 in0.0 mm
04:36 PM 29.6°F-1.3°C 29.0°F-1.7°C 76% 7.7 mph ESE12.4 kmh ESE 7.7 mph12.4 kmh 30.02 in1016.6 mb 0.00 in0.0 mm 0.00 in0.0 mm 0.00 in0.0 mm
04:39 PM 29.5°F-1.4°C 29.3°F-1.5°C 76% 5.6 mph ESE9.0 kmh ESE 5.6 mph9.0 kmh 30.02 in1016.6 mb 0.00 in0.0 mm 0.00 in0.0 mm 0.00 in0.0 mm
04:42 PM 29.4°F-1.4°C 29.3°F-1.5°C 76% 5.2 mph ESE8.4 kmh ESE 5.3 mph8.5 kmh 30.02 in1016.6 mb 0.00 in0.0 mm 0.00 in0.0 mm 0.00 in0.0 mm
04:45 PM 29.5°F-1.4°C 28.8°F-1.8°C 76% 11.7 mph NNW18.8 kmh NNW 11.8 mph19.0 kmh 30.02 in1016.6 mb 0.00 in0.0 mm 0.00 in0.0 mm 0.00 in0.0 mm
04:51 PM 29.3°F-1.5°C 29.1°F-1.6°C 76% 6.0 mph ESE9.7 kmh ESE 6.1 mph9.8 kmh 30.02 in1016.6 mb 0.00 in0.0 mm 0.00 in0.0 mm 0.00 in0.0 mm
04:54 PM 29.1°F-1.6°C 29.1°F-1.6°C 76% 8.1 mph ESE13.0 kmh ESE 8.2 mph13.2 kmh 30.02 in1016.6 mb 0.00 in0.0 mm 0.00 in0.0 mm 0.00 in0.0 mm
04:57 PM 29.2°F-1.6°C 28.4°F-2.0°C 75% 10.9 mph ESE17.5 kmh ESE 11.0 mph17.7 kmh 30.02 in1016.6 mb 0.00 in0.0 mm 0.00 in0.0 mm 0.00 in0.0 mm
05:00 PM 29.4°F-1.4°C 28.2°F-2.1°C 76% 9.7 mph NNW15.6 kmh NNW 9.8 mph15.8 kmh 30.02 in1016.6 mb 0.00 in0.0 mm 0.00 in0.0 mm 0.00 in0.0 mm
05:03 PM 29.5°F-1.4°C 28.1°F-2.2°C 76% 6.0 mph NNW9.7 kmh NNW 6.0 mph9.7 kmh 30.02 in1016.6 mb 0.00 in0.0 mm 0.00 in0.0 mm 0.00 in0.0 mm
05:06 PM 29.2°F-1.6°C 28.8°F-1.8°C 76% 5.6 mph ESE9.0 kmh ESE 5.6 mph9.0 kmh 30.02 in1016.6 mb 0.00 in0.0 mm 0.00 in0.0 mm 0.00 in0.0 mm
05:09 PM 29.2°F-1.6°C 28.8°F-1.8°C 75% 9.3 mph SE15.0 kmh SE 9.4 mph15.1 kmh 30.02 in1016.6 mb 0.00 in0.0 mm 0.00 in0.0 mm 0.00 in0.0 mm
05:12 PM 29.1°F-1.6°C 28.8°F-1.8°C 76% 5.7 mph E9.2 kmh E 5.7 mph9.2 kmh 30.02 in1016.6 mb 0.00 in0.0 mm 0.00 in0.0 mm 0.00 in0.0 mm
05:15 PM 29.1°F-1.6°C 29.0°F-1.7°C 76% Calm Calm -- 30.02 in1016.6 mb 0.00 in0.0 mm 0.00 in0.0 mm 0.00 in0.0 mm
05:18 PM 29.1°F-1.6°C 29.0°F-1.7°C 76% 6.4 mph E10.3 kmh E 6.4 mph10.3 kmh 30.02 in1016.6 mb 0.00 in0.0 mm 0.00 in0.0 mm 0.00 in0.0 mm
05:21 PM 29.2°F-1.6°C 28.9°F-1.7°C 76% 9.3 mph ESE15.0 kmh ESE 9.4 mph15.1 kmh 30.02 in1016.6 mb 0.00 in0.0 mm 0.00 in0.0 mm 0.00 in0.0 mm
05:27 PM 29.4°F-1.4°C 29.0°F-1.7°C 77% 9.1 mph ESE14.6 kmh ESE 9.2 mph14.8 kmh 30.02 in1016.6 mb 0.00 in0.0 mm 0.00 in0.0 mm 0.00 in0.0 mm
05:30 PM 29.3°F-1.5°C 28.6°F-1.9°C 76% 6.0 mph ESE9.7 kmh ESE 6.0 mph9.7 kmh 30.02 in1016.6 mb 0.00 in0.0 mm 0.00 in0.0 mm 0.00 in0.0 mm
05:33 PM 29.4°F-1.4°C 28.2°F-2.1°C 76% 11.3 mph ESE18.2 kmh ESE 11.4 mph18.3 kmh 30.02 in1016.6 mb 0.00 in0.0 mm 0.00 in0.0 mm 0.00 in0.0 mm
05:36 PM 29.3°F-1.5°C 28.7°F-1.8°C 76% 3.6 mph ESE5.8 kmh ESE 3.6 mph5.8 kmh 30.02 in1016.6 mb 0.00 in0.0 mm 0.00 in0.0 mm 0.00 in0.0 mm
05:39 PM 29.3°F-1.5°C 28.9°F-1.7°C 77% 8.5 mph ESE13.7 kmh ESE 8.6 mph13.8 kmh 30.02 in1016.6 mb 0.00 in0.0 mm 0.00 in0.0 mm 0.00 in0.0 mm
05:42 PM 29.3°F-1.5°C 28.5°F-1.9°C 76% 9.5 mph ESE15.3 kmh ESE 9.6 mph15.4 kmh 30.02 in1016.6 mb 0.00 in0.0 mm 0.00 in0.0 mm 0.00 in0.0 mm
05:45 PM 29.3°F-1.5°C 28.8°F-1.8°C 76% 7.9 mph ESE12.7 kmh ESE 8.0 mph12.9 kmh 30.02 in1016.6 mb 0.00 in0.0 mm 0.00 in0.0 mm 0.00 in0.0 mm
05:48 PM 29.3°F-1.5°C 28.7°F-1.8°C 76% 8.3 mph SE13.4 kmh SE 8.4 mph13.5 kmh 30.02 in1016.6 mb 0.00 in0.0 mm 0.00 in0.0 mm 0.00 in0.0 mm
05:51 PM 29.3°F-1.5°C 28.9°F-1.7°C 77% 9.9 mph ESE15.9 kmh ESE 10.0 mph16.1 kmh 30.02 in1016.6 mb 0.00 in0.0 mm 0.00 in0.0 mm 0.00 in0.0 mm
05:54 PM 29.3°F-1.5°C 28.8°F-1.8°C 76% 4.4 mph SE7.1 kmh SE 4.5 mph7.2 kmh 30.02 in1016.6 mb 0.00 in0.0 mm 0.00 in0.0 mm 0.00 in0.0 mm
05:57 PM 29.4°F-1.4°C 28.5°F-1.9°C 76% 8.9 mph SSE14.3 kmh SSE 9.0 mph14.5 kmh 30.02 in1016.6 mb 0.00 in0.0 mm 0.00 in0.0 mm 0.00 in0.0 mm
06:00 PM 29.3°F-1.5°C 28.5°F-1.9°C 76% 6.0 mph ESE9.7 kmh ESE 6.0 mph9.7 kmh 30.02 in1016.6 mb 0.00 in0.0 mm 0.00 in0.0 mm 0.00 in0.0 mm
06:03 PM 29.3°F-1.5°C 28.7°F-1.8°C 76% 4.0 mph SE6.4 kmh SE 4.1 mph6.6 kmh 30.03 in1016.9 mb 0.00 in0.0 mm 0.00 in0.0 mm 0.00 in0.0 mm
06:06 PM 29.4°F-1.4°C 28.6°F-1.9°C 76% 6.5 mph E10.5 kmh E 6.5 mph10.5 kmh 30.03 in1016.9 mb 0.00 in0.0 mm 0.00 in0.0 mm 0.00 in0.0 mm
06:09 PM 29.4°F-1.4°C 28.6°F-1.9°C 76% 5.6 mph SE9.0 kmh SE 5.7 mph9.2 kmh 30.03 in1016.9 mb 0.00 in0.0 mm 0.00 in0.0 mm 0.00 in0.0 mm
06:12 PM 29.5°F-1.4°C 28.0°F-2.2°C 75% 6.1 mph S9.8 kmh S 6.1 mph9.8 kmh 30.03 in1016.9 mb 0.00 in0.0 mm 0.00 in0.0 mm 0.00 in0.0 mm
06:15 PM 29.5°F-1.4°C 28.6°F-1.9°C 77% 9.3 mph NNW15.0 kmh NNW 9.4 mph15.1 kmh 30.03 in1016.9 mb 0.00 in0.0 mm 0.00 in0.0 mm 0.00 in0.0 mm
06:18 PM 29.5°F-1.4°C 28.4°F-2.0°C 77% 5.2 mph SE8.4 kmh SE 5.3 mph8.5 kmh 30.03 in1016.9 mb 0.00 in0.0 mm 0.00 in0.0 mm 0.00 in0.0 mm
06:21 PM 29.4°F-1.4°C 29.1°F-1.6°C 78% 0.8 mph E1.3 kmh E 0.8 mph1.3 kmh 30.03 in1016.9 mb 0.00 in0.0 mm 0.00 in0.0 mm 0.00 in0.0 mm
06:24 PM 29.4°F-1.4°C 29.0°F-1.7°C 77% 6.4 mph SE10.3 kmh SE 6.4 mph10.3 kmh 30.03 in1016.9 mb 0.00 in0.0 mm 0.00 in0.0 mm 0.00 in0.0 mm
06:27 PM 29.4°F-1.4°C 28.9°F-1.7°C 76% 6.8 mph NNW10.9 kmh NNW 6.9 mph11.1 kmh 30.03 in1016.9 mb 0.00 in0.0 mm 0.00 in0.0 mm 0.00 in0.0 mm
06:30 PM 29.4°F-1.4°C 28.7°F-1.8°C 77% 5.6 mph ESE9.0 kmh ESE 5.7 mph9.2 kmh 30.03 in1016.9 mb 0.00 in0.0 mm 0.00 in0.0 mm 0.00 in0.0 mm
06:33 PM 29.4°F-1.4°C 28.6°F-1.9°C 77% 7.5 mph SE12.1 kmh SE 7.6 mph12.2 kmh 30.03 in1016.9 mb 0.00 in0.0 mm 0.00 in0.0 mm 0.00 in0.0 mm
06:36 PM 29.5°F-1.4°C 28.0°F-2.2°C 76% 4.8 mph SSE7.7 kmh SSE 4.8 mph7.7 kmh 30.03 in1016.9 mb 0.00 in0.0 mm 0.00 in0.0 mm 0.00 in0.0 mm
06:39 PM 29.4°F-1.4°C 28.2°F-2.1°C 76% 6.8 mph NNW10.9 kmh NNW 6.9 mph11.1 kmh 30.03 in1016.9 mb 0.00 in0.0 mm 0.00 in0.0 mm 0.00 in0.0 mm
06:42 PM 29.5°F-1.4°C 28.3°F-2.1°C 76% 7.1 mph NNW11.4 kmh NNW 7.2 mph11.6 kmh 30.03 in1016.9 mb 0.00 in0.0 mm 0.00 in0.0 mm 0.00 in0.0 mm
06:45 PM 29.4°F-1.4°C 28.5°F-1.9°C 76% 6.1 mph ESE9.8 kmh ESE 6.1 mph9.8 kmh 30.03 in1016.9 mb 0.00 in0.0 mm 0.00 in0.0 mm 0.00 in0.0 mm
06:48 PM 29.3°F-1.5°C 28.6°F-1.9°C 76% 5.9 mph ESE9.5 kmh ESE 6.0 mph9.7 kmh 30.03 in1016.9 mb 0.00 in0.0 mm 0.00 in0.0 mm 0.00 in0.0 mm
06:51 PM 29.4°F-1.4°C 28.4°F-2.0°C 76% 9.6 mph NNW15.4 kmh NNW 9.7 mph15.6 kmh 30.03 in1016.9 mb 0.00 in0.0 mm 0.00 in0.0 mm 0.00 in0.0 mm
06:54 PM 29.5°F-1.4°C 28.3°F-2.1°C 76% 6.5 mph NNW10.5 kmh NNW 6.5 mph10.5 kmh 30.03 in1016.9 mb 0.00 in0.0 mm 0.00 in0.0 mm 0.00 in0.0 mm
06:57 PM 29.4°F-1.4°C 28.3°F-2.1°C 76% 4.8 mph E7.7 kmh E 4.8 mph7.7 kmh 30.03 in1016.9 mb 0.00 in0.0 mm 0.00 in0.0 mm 0.00 in0.0 mm
07:00 PM 29.3°F-1.5°C 28.8°F-1.8°C 77% 6.5 mph SE10.5 kmh SE 6.5 mph10.5 kmh 30.03 in1016.9 mb 0.00 in0.0 mm 0.00 in0.0 mm 0.00 in0.0 mm
07:03 PM 29.3°F-1.5°C 28.3°F-2.1°C 77% 8.3 mph ESE13.4 kmh ESE 8.4 mph13.5 kmh 30.03 in1016.9 mb 0.00 in0.0 mm 0.00 in0.0 mm 0.00 in0.0 mm
07:06 PM 29.4°F-1.4°C 28.2°F-2.1°C 76% 6.9 mph ESE11.1 kmh ESE 6.9 mph11.1 kmh 30.03 in1016.9 mb 0.00 in0.0 mm 0.00 in0.0 mm 0.00 in0.0 mm
07:09 PM 29.4°F-1.4°C 28.0°F-2.2°C 76% 10.3 mph ESE16.6 kmh ESE 10.4 mph16.7 kmh 30.03 in1016.9 mb 0.00 in0.0 mm 0.00 in0.0 mm 0.00 in0.0 mm
07:12 PM 29.4°F-1.4°C 28.6°F-1.9°C 77% 6.4 mph ESE10.3 kmh ESE 6.5 mph10.5 kmh 30.03 in1016.9 mb 0.00 in0.0 mm 0.00 in0.0 mm 0.00 in0.0 mm
07:15 PM 29.4°F-1.4°C 28.4°F-2.0°C 77% 8.1 mph ESE13.0 kmh ESE 8.1 mph13.0 kmh 30.03 in1016.9 mb 0.00 in0.0 mm 0.00 in0.0 mm 0.00 in0.0 mm
07:18 PM 29.3°F-1.5°C 28.8°F-1.8°C 76% 7.7 mph SE12.4 kmh SE 7.7 mph12.4 kmh 30.03 in1016.9 mb 0.00 in0.0 mm 0.00 in0.0 mm 0.00 in0.0 mm
07:21 PM 29.4°F-1.4°C 28.5°F-1.9°C 77% 8.0 mph SE12.9 kmh SE 8.0 mph12.9 kmh 30.03 in1016.9 mb 0.00 in0.0 mm 0.00 in0.0 mm 0.00 in0.0 mm
07:24 PM 29.4°F-1.4°C 28.6°F-1.9°C 77% 6.5 mph SE10.5 kmh SE 6.5 mph10.5 kmh 30.03 in1016.9 mb 0.00 in0.0 mm 0.00 in0.0 mm 0.00 in0.0 mm
07:27 PM 29.4°F-1.4°C 28.8°F-1.8°C 77% 5.3 mph SE8.5 kmh SE 5.3 mph8.5 kmh 30.03 in1016.9 mb 0.00 in0.0 mm 0.00 in0.0 mm 0.00 in0.0 mm
07:30 PM 29.4°F-1.4°C 28.4°F-2.0°C 77% 8.1 mph SE13.0 kmh SE 8.1 mph13.0 kmh 30.03 in1016.9 mb 0.00 in0.0 mm 0.00 in0.0 mm 0.00 in0.0 mm
07:33 PM 29.4°F-1.4°C 28.6°F-1.9°C 78% 10.5 mph NNW16.9 kmh NNW 10.6 mph17.1 kmh 30.03 in1016.9 mb 0.00 in0.0 mm 0.00 in0.0 mm 0.00 in0.0 mm
07:36 PM 29.4°F-1.4°C 28.5°F-1.9°C 77% 8.9 mph NNW14.3 kmh NNW 8.9 mph14.3 kmh 30.03 in1016.9 mb 0.00 in0.0 mm 0.00 in0.0 mm 0.00 in0.0 mm
07:39 PM 29.5°F-1.4°C 28.6°F-1.9°C 78% 8.8 mph ESE14.2 kmh ESE 8.8 mph14.2 kmh 30.03 in1016.9 mb 0.00 in0.0 mm 0.00 in0.0 mm 0.00 in0.0 mm
07:42 PM 29.4°F-1.4°C 28.7°F-1.8°C 78% 8.0 mph NNW12.9 kmh NNW 8.0 mph12.9 kmh 30.03 in1016.9 mb 0.00 in0.0 mm 0.00 in0.0 mm 0.00 in0.0 mm
07:45 PM 29.4°F-1.4°C 28.5°F-1.9°C 78% 7.1 mph NNW11.4 kmh NNW 7.2 mph11.6 kmh 30.03 in1016.9 mb 0.00 in0.0 mm 0.00 in0.0 mm 0.00 in0.0 mm
07:48 PM 29.4°F-1.4°C 28.0°F-2.2°C 77% 9.7 mph SE15.6 kmh SE 9.8 mph15.8 kmh 30.03 in1016.9 mb 0.00 in0.0 mm 0.00 in0.0 mm 0.00 in0.0 mm
07:51 PM 29.4°F-1.4°C 28.5°F-1.9°C 78% 7.7 mph SE12.4 kmh SE 7.7 mph12.4 kmh 30.03 in1016.9 mb 0.00 in0.0 mm 0.00 in0.0 mm 0.00 in0.0 mm
07:54 PM 29.4°F-1.4°C 28.6°F-1.9°C 78% 7.9 mph SE12.7 kmh SE 8.0 mph12.9 kmh 30.03 in1016.9 mb 0.00 in0.0 mm 0.00 in0.0 mm 0.00 in0.0 mm
07:57 PM 29.4°F-1.4°C 28.7°F-1.8°C 77% 5.6 mph ESE9.0 kmh ESE 5.6 mph9.0 kmh 30.03 in1016.9 mb 0.00 in0.0 mm 0.00 in0.0 mm 0.00 in0.0 mm
08:00 PM 29.3°F-1.5°C 28.7°F-1.8°C 78% 8.4 mph SE13.5 kmh SE 8.5 mph13.7 kmh 30.03 in1016.9 mb 0.00 in0.0 mm 0.00 in0.0 mm 0.00 in0.0 mm
08:03 PM 29.3°F-1.5°C 28.9°F-1.7°C 77% 5.3 mph ESE8.5 kmh ESE 5.3 mph8.5 kmh 30.03 in1016.9 mb 0.00 in0.0 mm 0.00 in0.0 mm 0.00 in0.0 mm
08:06 PM 29.4°F-1.4°C 28.7°F-1.8°C 78% 8.9 mph SE14.3 kmh SE 9.0 mph14.5 kmh 30.03 in1016.9 mb 0.00 in0.0 mm 0.00 in0.0 mm 0.00 in0.0 mm
08:09 PM 29.4°F-1.4°C 29.1°F-1.6°C 78% 5.6 mph SE9.0 kmh SE 5.6 mph9.0 kmh 30.03 in1016.9 mb 0.00 in0.0 mm 0.00 in0.0 mm 0.00 in0.0 mm
08:12 PM 29.4°F-1.4°C 28.5°F-1.9°C 77% 4.4 mph SE7.1 kmh SE 4.5 mph7.2 kmh 30.03 in1016.9 mb 0.00 in0.0 mm 0.00 in0.0 mm 0.00 in0.0 mm
08:15 PM 29.3°F-1.5°C 28.8°F-1.8°C 77% 7.5 mph ESE12.1 kmh ESE 7.6 mph12.2 kmh 30.03 in1016.9 mb 0.00 in0.0 mm 0.00 in0.0 mm 0.00 in0.0 mm
08:18 PM 29.4°F-1.4°C 29.2°F-1.6°C 78% 6.4 mph SE10.3 kmh SE 6.4 mph10.3 kmh 30.03 in1016.9 mb 0.00 in0.0 mm 0.00 in0.0 mm 0.00 in0.0 mm
08:21 PM 29.2°F-1.6°C 29.0°F-1.7°C 78% 5.2 mph ESE8.4 kmh ESE 5.3 mph8.5 kmh 30.03 in1016.9 mb 0.00 in0.0 mm 0.00 in0.0 mm 0.00 in0.0 mm
08:24 PM 29.3°F-1.5°C 29.1°F-1.6°C 78% 10.1 mph ESE16.3 kmh ESE 10.2 mph16.4 kmh 30.03 in1016.9 mb 0.00 in0.0 mm 0.00 in0.0 mm 0.00 in0.0 mm
08:27 PM 29.3°F-1.5°C 28.5°F-1.9°C 76% 8.1 mph SE13.0 kmh SE 8.2 mph13.2 kmh 30.03 in1016.9 mb 0.00 in0.0 mm 0.00 in0.0 mm 0.00 in0.0 mm
08:30 PM 29.3°F-1.5°C 28.8°F-1.8°C 77% 7.7 mph ESE12.4 kmh ESE 7.7 mph12.4 kmh 30.03 in1016.9 mb 0.00 in0.0 mm 0.00 in0.0 mm 0.00 in0.0 mm
08:33 PM 29.2°F-1.6°C 29.3°F-1.5°C 78% 5.2 mph ESE8.4 kmh ESE 5.3 mph8.5 kmh 30.03 in1016.9 mb 0.00 in0.0 mm 0.00 in0.0 mm 0.00 in0.0 mm
08:36 PM 29.2°F-1.6°C 28.8°F-1.8°C 77% 5.3 mph ESE8.5 kmh ESE 5.3 mph8.5 kmh 30.03 in1016.9 mb 0.00 in0.0 mm 0.00 in0.0 mm 0.00 in0.0 mm
08:39 PM 29.2°F-1.6°C 28.9°F-1.7°C 76% 7.3 mph SE11.7 kmh SE 7.3 mph11.7 kmh 30.03 in1016.9 mb 0.00 in0.0 mm 0.00 in0.0 mm 0.00 in0.0 mm
08:42 PM 29.2°F-1.6°C 28.8°F-1.8°C 77% 8.5 mph SE13.7 kmh SE 8.5 mph13.7 kmh 30.03 in1016.9 mb 0.00 in0.0 mm 0.00 in0.0 mm 0.00 in0.0 mm
08:45 PM 29.3°F-1.5°C 28.3°F-2.1°C 76% 5.2 mph ESE8.4 kmh ESE 5.3 mph8.5 kmh 30.03 in1016.9 mb 0.00 in0.0 mm 0.00 in0.0 mm 0.00 in0.0 mm
08:48 PM 29.2°F-1.6°C 28.9°F-1.7°C 77% 4.4 mph E7.1 kmh E 4.5 mph7.2 kmh 30.03 in1016.9 mb 0.00 in0.0 mm 0.00 in0.0 mm 0.00 in0.0 mm
08:51 PM 29.3°F-1.5°C 28.7°F-1.8°C 78% 11.1 mph SE17.9 kmh SE 11.2 mph18.0 kmh 30.03 in1016.9 mb 0.00 in0.0 mm 0.00 in0.0 mm 0.00 in0.0 mm
08:54 PM 29.2°F-1.6°C 29.0°F-1.7°C 77% 8.1 mph ESE13.0 kmh ESE 8.2 mph13.2 kmh 30.03 in1016.9 mb 0.00 in0.0 mm 0.00 in0.0 mm 0.00 in0.0 mm
08:57 PM 29.2°F-1.6°C 28.7°F-1.8°C 77% 7.1 mph ESE11.4 kmh ESE 7.2 mph11.6 kmh 30.03 in1016.9 mb 0.00 in0.0 mm 0.00 in0.0 mm 0.00 in0.0 mm
09:00 PM 29.2°F-1.6°C 28.6°F-1.9°C 77% 7.2 mph NNW11.6 kmh NNW 7.3 mph11.7 kmh 30.03 in1016.9 mb 0.00 in0.0 mm 0.00 in0.0 mm 0.00 in0.0 mm
09:03 PM 29.2°F-1.6°C 28.7°F-1.8°C 77% 7.3 mph ESE11.7 kmh ESE 7.3 mph11.7 kmh 30.03 in1016.9 mb 0.00 in0.0 mm 0.00 in0.0 mm 0.00 in0.0 mm
09:06 PM 29.2°F-1.6°C 28.4°F-2.0°C 77% 11.7 mph ESE18.8 kmh ESE 11.8 mph19.0 kmh 30.03 in1016.9 mb 0.00 in0.0 mm 0.00 in0.0 mm 0.00 in0.0 mm
09:09 PM 29.2°F-1.6°C 28.6°F-1.9°C 77% 6.0 mph NNW9.7 kmh NNW 6.0 mph9.7 kmh 30.03 in1016.9 mb 0.00 in0.0 mm 0.00 in0.0 mm 0.00 in0.0 mm
09:12 PM 29.2°F-1.6°C 28.4°F-2.0°C 76% 5.3 mph SE8.5 kmh SE 5.3 mph8.5 kmh 30.04 in1017.3 mb 0.00 in0.0 mm 0.00 in0.0 mm 0.00 in0.0 mm
09:15 PM 29.2°F-1.6°C 28.6°F-1.9°C 76% 3.6 mph ESE5.8 kmh ESE 3.7 mph6.0 kmh 30.04 in1017.3 mb 0.00 in0.0 mm 0.00 in0.0 mm 0.00 in0.0 mm
09:18 PM 29.1°F-1.6°C 28.8°F-1.8°C 76% 3.2 mph ESE5.1 kmh ESE 3.3 mph5.3 kmh 30.03 in1016.9 mb 0.00 in0.0 mm 0.00 in0.0 mm 0.00 in0.0 mm
09:21 PM 29.2°F-1.6°C 28.6°F-1.9°C 76% 6.8 mph SE10.9 kmh SE 6.8 mph10.9 kmh 30.03 in1016.9 mb 0.00 in0.0 mm 0.00 in0.0 mm 0.00 in0.0 mm
09:24 PM 29.1°F-1.6°C 28.7°F-1.8°C 76% 5.1 mph ESE8.2 kmh ESE 5.2 mph8.4 kmh 30.03 in1016.9 mb 0.00 in0.0 mm 0.00 in0.0 mm 0.00 in0.0 mm
09:27 PM 29.2°F-1.6°C 28.5°F-1.9°C 76% 8.7 mph ESE14.0 kmh ESE 8.8 mph14.2 kmh 30.03 in1016.9 mb 0.00 in0.0 mm 0.00 in0.0 mm 0.00 in0.0 mm
09:30 PM 29.1°F-1.6°C 28.4°F-2.0°C 77% 6.5 mph SE10.5 kmh SE 6.5 mph10.5 kmh 30.03 in1016.9 mb 0.00 in0.0 mm 0.00 in0.0 mm 0.00 in0.0 mm
09:33 PM 29.1°F-1.6°C 28.7°F-1.8°C 77% 4.4 mph NNW7.1 kmh NNW 4.5 mph7.2 kmh 30.03 in1016.9 mb 0.00 in0.0 mm 0.00 in0.0 mm 0.00 in0.0 mm
09:36 PM 29.1°F-1.6°C 28.6°F-1.9°C 76% 0.8 mph E1.3 kmh E 0.8 mph1.3 kmh 30.03 in1016.9 mb 0.00 in0.0 mm 0.00 in0.0 mm 0.00 in0.0 mm
09:39 PM 29.2°F-1.6°C 28.3°F-2.1°C 76% 7.7 mph SE12.4 kmh SE 7.7 mph12.4 kmh 30.03 in1016.9 mb 0.00 in0.0 mm 0.00 in0.0 mm 0.00 in0.0 mm
09:42 PM 29.1°F-1.6°C 28.4°F-2.0°C 76% 3.6 mph E5.8 kmh E 3.7 mph6.0 kmh 30.03 in1016.9 mb 0.00 in0.0 mm 0.00 in0.0 mm 0.00 in0.0 mm
09:45 PM 29.2°F-1.6°C 28.5°F-1.9°C 76% 6.9 mph SE11.1 kmh SE 6.9 mph11.1 kmh 30.04 in1017.3 mb 0.00 in0.0 mm 0.00 in0.0 mm 0.00 in0.0 mm
09:51 PM 29.1°F-1.6°C 28.3°F-2.1°C 76% 7.3 mph ESE11.7 kmh ESE 7.3 mph11.7 kmh 30.04 in1017.3 mb 0.00 in0.0 mm 0.00 in0.0 mm 0.00 in0.0 mm
09:54 PM 29.2°F-1.6°C 28.3°F-2.1°C 76% 6.0 mph NNW9.7 kmh NNW 6.0 mph9.7 kmh 30.04 in1017.3 mb 0.00 in0.0 mm 0.00 in0.0 mm 0.00 in0.0 mm
09:57 PM 29.1°F-1.6°C 28.2°F-2.1°C 76% 4.0 mph NNW6.4 kmh NNW 4.1 mph6.6 kmh 30.04 in1017.3 mb 0.00 in0.0 mm 0.00 in0.0 mm 0.00 in0.0 mm
10:00 PM 29.2°F-1.6°C 27.9°F-2.3°C 75% 4.0 mph SE6.4 kmh SE 4.0 mph6.4 kmh 30.04 in1017.3 mb 0.00 in0.0 mm 0.00 in0.0 mm 0.00 in0.0 mm
10:03 PM 29.0°F-1.7°C 28.3°F-2.1°C 76% 8.0 mph NNW12.9 kmh NNW 8.0 mph12.9 kmh 30.04 in1017.3 mb 0.00 in0.0 mm 0.00 in0.0 mm 0.00 in0.0 mm
10:06 PM 29.1°F-1.6°C 28.3°F-2.1°C 75% 4.4 mph ESE7.1 kmh ESE 4.4 mph7.1 kmh 30.04 in1017.3 mb 0.00 in0.0 mm 0.00 in0.0 mm 0.00 in0.0 mm
10:09 PM 29.0°F-1.7°C 28.1°F-2.2°C 75% 9.7 mph SE15.6 kmh SE 9.8 mph15.8 kmh 30.04 in1017.3 mb 0.00 in0.0 mm 0.00 in0.0 mm 0.00 in0.0 mm
10:12 PM 29.0°F-1.7°C 28.4°F-2.0°C 76% Calm Calm -- 30.03 in1016.9 mb 0.00 in0.0 mm 0.00 in0.0 mm 0.00 in0.0 mm
10:15 PM 29.1°F-1.6°C 28.1°F-2.2°C 75% 5.3 mph ESE8.5 kmh ESE 5.3 mph8.5 kmh 30.05 in1017.6 mb 0.00 in0.0 mm 0.00 in0.0 mm 0.00 in0.0 mm
10:18 PM 29.1°F-1.6°C 28.1°F-2.2°C 75% 5.7 mph ESE9.2 kmh ESE 5.7 mph9.2 kmh 30.04 in1017.3 mb 0.00 in0.0 mm 0.00 in0.0 mm 0.00 in0.0 mm
10:21 PM 29.1°F-1.6°C 27.9°F-2.3°C 75% 6.8 mph SE10.9 kmh SE 6.8 mph10.9 kmh 30.04 in1017.3 mb 0.00 in0.0 mm 0.00 in0.0 mm 0.00 in0.0 mm
10:24 PM 29.0°F-1.7°C 28.1°F-2.2°C 76% 1.2 mph ESE1.9 kmh ESE 1.2 mph1.9 kmh 30.04 in1017.3 mb 0.00 in0.0 mm 0.00 in0.0 mm 0.00 in0.0 mm
10:27 PM 29.1°F-1.6°C 28.0°F-2.2°C 75% 6.1 mph SE9.8 kmh SE 6.1 mph9.8 kmh 30.04 in1017.3 mb 0.00 in0.0 mm 0.00 in0.0 mm 0.00 in0.0 mm
10:30 PM 29.0°F-1.7°C 28.2°F-2.1°C 76% 5.2 mph NNW8.4 kmh NNW 5.3 mph8.5 kmh 30.04 in1017.3 mb 0.00 in0.0 mm 0.00 in0.0 mm 0.00 in0.0 mm
10:33 PM 29.0°F-1.7°C 28.5°F-1.9°C 76% Calm Calm -- 30.04 in1017.3 mb 0.00 in0.0 mm 0.00 in0.0 mm 0.00 in0.0 mm
10:36 PM 29.1°F-1.6°C 28.1°F-2.2°C 75% 5.3 mph NNW8.5 kmh NNW 5.3 mph8.5 kmh 30.04 in1017.3 mb 0.00 in0.0 mm 0.00 in0.0 mm 0.00 in0.0 mm
10:39 PM 29.1°F-1.6°C 27.7°F-2.4°C 75% 4.4 mph SE7.1 kmh SE 4.5 mph7.2 kmh 30.05 in1017.6 mb 0.00 in0.0 mm 0.00 in0.0 mm 0.00 in0.0 mm
10:42 PM 29.1°F-1.6°C 27.7°F-2.4°C 75% 6.0 mph SE9.7 kmh SE 6.1 mph9.8 kmh 30.04 in1017.3 mb 0.00 in0.0 mm 0.00 in0.0 mm 0.00 in0.0 mm
10:45 PM 29.1°F-1.6°C 28.0°F-2.2°C 75% 6.0 mph ESE9.7 kmh ESE 6.1 mph9.8 kmh 30.04 in1017.3 mb 0.00 in0.0 mm 0.00 in0.0 mm 0.00 in0.0 mm
10:48 PM 29.1°F-1.6°C 27.6°F-2.4°C 75% 6.4 mph E10.3 kmh E 6.4 mph10.3 kmh 30.05 in1017.6 mb 0.00 in0.0 mm 0.00 in0.0 mm 0.00 in0.0 mm
10:51 PM 29.1°F-1.6°C 28.0°F-2.2°C 75% 4.4 mph NNW7.1 kmh NNW 4.5 mph7.2 kmh 30.04 in1017.3 mb 0.00 in0.0 mm 0.00 in0.0 mm 0.00 in0.0 mm
10:54 PM 29.0°F-1.7°C 28.3°F-2.1°C 75% Calm Calm -- 30.04 in1017.3 mb 0.00 in0.0 mm 0.00 in0.0 mm 0.00 in0.0 mm
10:57 PM 29.1°F-1.6°C 28.1°F-2.2°C 75% 6.7 mph ESE10.8 kmh ESE 6.8 mph10.9 kmh 30.05 in1017.6 mb 0.00 in0.0 mm 0.00 in0.0 mm 0.00 in0.0 mm
11:00 PM 29.0°F-1.7°C 28.4°F-2.0°C 75% 1.6 mph E2.6 kmh E 1.6 mph2.6 kmh 30.04 in1017.3 mb 0.00 in0.0 mm 0.00 in0.0 mm 0.00 in0.0 mm
11:03 PM 29.0°F-1.7°C 28.5°F-1.9°C 74% 1.6 mph NNW2.6 kmh NNW 1.6 mph2.6 kmh 30.04 in1017.3 mb 0.00 in0.0 mm 0.00 in0.0 mm 0.00 in0.0 mm
11:06 PM 29.0°F-1.7°C 28.4°F-2.0°C 75% 2.4 mph E3.9 kmh E 2.4 mph3.9 kmh 30.04 in1017.3 mb 0.00 in0.0 mm 0.00 in0.0 mm 0.00 in0.0 mm
11:09 PM 29.0°F-1.7°C 28.5°F-1.9°C 75% 5.7 mph ESE9.2 kmh ESE 5.7 mph9.2 kmh 30.03 in1016.9 mb 0.00 in0.0 mm 0.00 in0.0 mm 0.00 in0.0 mm
11:12 PM 29.0°F-1.7°C 28.2°F-2.1°C 75% 3.2 mph ESE5.1 kmh ESE 3.2 mph5.1 kmh 30.04 in1017.3 mb 0.00 in0.0 mm 0.00 in0.0 mm 0.00 in0.0 mm
11:15 PM 29.0°F-1.7°C 28.4°F-2.0°C 75% 1.6 mph NNW2.6 kmh NNW 1.6 mph2.6 kmh 30.04 in1017.3 mb 0.00 in0.0 mm 0.00 in0.0 mm 0.00 in0.0 mm
11:18 PM 29.0°F-1.7°C 28.3°F-2.1°C 76% 5.2 mph SE8.4 kmh SE 5.2 mph8.4 kmh 30.04 in1017.3 mb 0.00 in0.0 mm 0.00 in0.0 mm 0.00 in0.0 mm
11:21 PM 29.2°F-1.6°C 28.2°F-2.1°C 76% 5.6 mph SE9.0 kmh SE 5.7 mph9.2 kmh 30.04 in1017.3 mb 0.00 in0.0 mm 0.00 in0.0 mm 0.00 in0.0 mm
11:24 PM 29.1°F-1.6°C 28.4°F-2.0°C 76% 4.8 mph SE7.7 kmh SE 4.9 mph7.9 kmh 30.04 in1017.3 mb 0.00 in0.0 mm 0.00 in0.0 mm 0.00 in0.0 mm
11:27 PM 29.1°F-1.6°C 27.9°F-2.3°C 75% 3.2 mph SE5.1 kmh SE 3.3 mph5.3 kmh 30.04 in1017.3 mb 0.00 in0.0 mm 0.00 in0.0 mm 0.00 in0.0 mm
11:30 PM 29.1°F-1.6°C 28.3°F-2.1°C 75% 3.2 mph NNW5.1 kmh NNW 3.2 mph5.1 kmh 30.04 in1017.3 mb 0.00 in0.0 mm 0.00 in0.0 mm 0.00 in0.0 mm
11:33 PM 29.1°F-1.6°C 28.5°F-1.9°C 76% 7.7 mph NNW12.4 kmh NNW 7.7 mph12.4 kmh 30.05 in1017.6 mb 0.00 in0.0 mm 0.00 in0.0 mm 0.00 in0.0 mm
11:36 PM 29.0°F-1.7°C 28.5°F-1.9°C 76% 4.4 mph SE7.1 kmh SE 4.5 mph7.2 kmh 30.04 in1017.3 mb 0.00 in0.0 mm 0.00 in0.0 mm 0.00 in0.0 mm
11:39 PM 29.1°F-1.6°C 27.9°F-2.3°C 75% 10.3 mph NNW16.6 kmh NNW 10.3 mph16.6 kmh 30.04 in1017.3 mb 0.00 in0.0 mm 0.00 in0.0 mm 0.00 in0.0 mm
11:42 PM 29.2°F-1.6°C 28.6°F-1.9°C 77% 5.7 mph SE9.2 kmh SE 5.7 mph9.2 kmh 30.04 in1017.3 mb 0.00 in0.0 mm 0.00 in0.0 mm 0.00 in0.0 mm
11:45 PM 29.2°F-1.6°C 28.2°F-2.1°C 76% 6.9 mph ESE11.1 kmh ESE 6.9 mph11.1 kmh 30.05 in1017.6 mb 0.00 in0.0 mm 0.00 in0.0 mm 0.00 in0.0 mm
11:48 PM 29.2°F-1.6°C 28.3°F-2.1°C 76% 10.9 mph SE17.5 kmh SE 10.9 mph17.5 kmh 30.05 in1017.6 mb 0.00 in0.0 mm 0.00 in0.0 mm 0.00 in0.0 mm
11:51 PM 29.2°F-1.6°C 28.1°F-2.2°C 77% 9.1 mph NNW14.6 kmh NNW 9.2 mph14.8 kmh 30.05 in1017.6 mb 0.00 in0.0 mm 0.00 in0.0 mm 0.00 in0.0 mm
11:54 PM 29.2°F-1.6°C 27.8°F-2.3°C 76% 12.9 mph SE20.8 kmh SE 12.9 mph20.8 kmh 30.04 in1017.3 mb 0.00 in0.0 mm 0.00 in0.0 mm 0.00 in0.0 mm
11:57 PM 29.2°F-1.6°C 28.0°F-2.2°C 76% 8.1 mph ESE13.0 kmh ESE 8.2 mph13.2 kmh 30.05 in1017.6 mb 0.00 in0.0 mm 0.00 in0.0 mm 0.00 in0.0 mm